<?xml version="1.0" encoding="UTF-8" standalone="no" ?>
<gpx xmlns="http://www.topografix.com/GPX/1/1" xmlns:xsi="http://www.w3.org/2001/XMLSchema-instance" xsi:schemaLocation="http://www.topografix.com/GPX/1/1 http://www.topografix.com/GPX/1/1/gpx.xsd" version="1.1" creator="VisuGPX - https://www.visugpx.com">
  <metadata>
    <name>VTT Cyclo Salignac </name>
    <desc><![CDATA[Circuit bien préparé, varié : sou-bois, sentiers en herbe, chemins empierré etc....]]></desc>
  </metadata>
  <trk>
    <name><![CDATA[09-JUIN-13 11:46:22]]></name>
    <trkseg>
      <trkpt lat="45.67181" lon="-0.4215">
        <ele>10.71</ele>
        <time>2013-06-09T07:21:46Z</time>
      </trkpt>
      <trkpt lat="45.67181" lon="-0.4215">
        <ele>10.71</ele>
        <time>2013-06-09T07:21:51Z</time>
      </trkpt>
      <trkpt lat="45.6717" lon="-0.42165">
        <ele>10.71</ele>
        <time>2013-06-09T07:22:02Z</time>
      </trkpt>
      <trkpt lat="45.67171" lon="-0.4217">
        <ele>10.71</ele>
        <time>2013-06-09T07:22:03Z</time>
      </trkpt>
      <trkpt lat="45.67171" lon="-0.4218">
        <ele>10.71</ele>
        <time>2013-06-09T07:22:08Z</time>
      </trkpt>
      <trkpt lat="45.67172" lon="-0.42194">
        <ele>13.6</ele>
        <time>2013-06-09T07:22:20Z</time>
      </trkpt>
      <trkpt lat="45.67171" lon="-0.42196">
        <ele>13.12</ele>
        <time>2013-06-09T07:22:38Z</time>
      </trkpt>
      <trkpt lat="45.67169" lon="-0.42207">
        <ele>13.6</ele>
        <time>2013-06-09T07:22:42Z</time>
      </trkpt>
      <trkpt lat="45.67179" lon="-0.42262">
        <ele>14.08</ele>
        <time>2013-06-09T07:22:56Z</time>
      </trkpt>
      <trkpt lat="45.67193" lon="-0.42263">
        <ele>14.56</ele>
        <time>2013-06-09T07:23:02Z</time>
      </trkpt>
      <trkpt lat="45.672" lon="-0.42272">
        <ele>14.08</ele>
        <time>2013-06-09T07:23:09Z</time>
      </trkpt>
      <trkpt lat="45.67198" lon="-0.42272">
        <ele>14.08</ele>
        <time>2013-06-09T07:23:32Z</time>
      </trkpt>
      <trkpt lat="45.67198" lon="-0.42272">
        <ele>15.52</ele>
        <time>2013-06-09T07:24:12Z</time>
      </trkpt>
      <trkpt lat="45.67197" lon="-0.42273">
        <ele>15.04</ele>
        <time>2013-06-09T07:24:53Z</time>
      </trkpt>
      <trkpt lat="45.67197" lon="-0.42273">
        <ele>14.56</ele>
        <time>2013-06-09T07:25:33Z</time>
      </trkpt>
      <trkpt lat="45.67197" lon="-0.42271">
        <ele>15.04</ele>
        <time>2013-06-09T07:25:48Z</time>
      </trkpt>
      <trkpt lat="45.67191" lon="-0.42273">
        <ele>15.04</ele>
        <time>2013-06-09T07:25:52Z</time>
      </trkpt>
      <trkpt lat="45.67157" lon="-0.42296">
        <ele>15.04</ele>
        <time>2013-06-09T07:26:07Z</time>
      </trkpt>
      <trkpt lat="45.6715" lon="-0.42288">
        <ele>15.04</ele>
        <time>2013-06-09T07:26:11Z</time>
      </trkpt>
      <trkpt lat="45.6714" lon="-0.42254">
        <ele>14.56</ele>
        <time>2013-06-09T07:26:25Z</time>
      </trkpt>
      <trkpt lat="45.67138" lon="-0.42233">
        <ele>13.6</ele>
        <time>2013-06-09T07:26:30Z</time>
      </trkpt>
      <trkpt lat="45.6713" lon="-0.42137">
        <ele>8.31</ele>
        <time>2013-06-09T07:26:43Z</time>
      </trkpt>
      <trkpt lat="45.67111" lon="-0.42123">
        <ele>7.35</ele>
        <time>2013-06-09T07:26:49Z</time>
      </trkpt>
      <trkpt lat="45.6706" lon="-0.42163">
        <ele>6.39</ele>
        <time>2013-06-09T07:27:02Z</time>
      </trkpt>
      <trkpt lat="45.66963" lon="-0.42195">
        <ele>6.39</ele>
        <time>2013-06-09T07:27:21Z</time>
      </trkpt>
      <trkpt lat="45.66858" lon="-0.42162">
        <ele>5.91</ele>
        <time>2013-06-09T07:27:41Z</time>
      </trkpt>
      <trkpt lat="45.66778" lon="-0.42101">
        <ele>5.91</ele>
        <time>2013-06-09T07:27:58Z</time>
      </trkpt>
      <trkpt lat="45.66772" lon="-0.42089">
        <ele>5.91</ele>
        <time>2013-06-09T07:28:00Z</time>
      </trkpt>
      <trkpt lat="45.66764" lon="-0.42071">
        <ele>6.39</ele>
        <time>2013-06-09T07:28:03Z</time>
      </trkpt>
      <trkpt lat="45.66724" lon="-0.41937">
        <ele>6.87</ele>
        <time>2013-06-09T07:28:24Z</time>
      </trkpt>
      <trkpt lat="45.66729" lon="-0.41915">
        <ele>5.91</ele>
        <time>2013-06-09T07:28:28Z</time>
      </trkpt>
      <trkpt lat="45.66748" lon="-0.41888">
        <ele>5.42</ele>
        <time>2013-06-09T07:28:34Z</time>
      </trkpt>
      <trkpt lat="45.66751" lon="-0.41868">
        <ele>5.42</ele>
        <time>2013-06-09T07:28:38Z</time>
      </trkpt>
      <trkpt lat="45.66741" lon="-0.41828">
        <ele>6.87</ele>
        <time>2013-06-09T07:28:47Z</time>
      </trkpt>
      <trkpt lat="45.66755" lon="-0.41814">
        <ele>7.35</ele>
        <time>2013-06-09T07:28:53Z</time>
      </trkpt>
      <trkpt lat="45.66817" lon="-0.41781">
        <ele>9.75</ele>
        <time>2013-06-09T07:29:13Z</time>
      </trkpt>
      <trkpt lat="45.66851" lon="-0.41763">
        <ele>12.15</ele>
        <time>2013-06-09T07:29:29Z</time>
      </trkpt>
      <trkpt lat="45.66903" lon="-0.41737">
        <ele>13.6</ele>
        <time>2013-06-09T07:29:50Z</time>
      </trkpt>
      <trkpt lat="45.66946" lon="-0.41716">
        <ele>14.56</ele>
        <time>2013-06-09T07:30:07Z</time>
      </trkpt>
      <trkpt lat="45.66956" lon="-0.4171">
        <ele>15.04</ele>
        <time>2013-06-09T07:30:11Z</time>
      </trkpt>
      <trkpt lat="45.66954" lon="-0.41681">
        <ele>14.08</ele>
        <time>2013-06-09T07:30:19Z</time>
      </trkpt>
      <trkpt lat="45.66941" lon="-0.41606">
        <ele>13.6</ele>
        <time>2013-06-09T07:30:37Z</time>
      </trkpt>
      <trkpt lat="45.66928" lon="-0.41532">
        <ele>13.6</ele>
        <time>2013-06-09T07:30:55Z</time>
      </trkpt>
      <trkpt lat="45.66916" lon="-0.41477">
        <ele>13.6</ele>
        <time>2013-06-09T07:31:10Z</time>
      </trkpt>
      <trkpt lat="45.66895" lon="-0.41395">
        <ele>14.08</ele>
        <time>2013-06-09T07:31:31Z</time>
      </trkpt>
      <trkpt lat="45.66895" lon="-0.41388">
        <ele>14.08</ele>
        <time>2013-06-09T07:31:33Z</time>
      </trkpt>
      <trkpt lat="45.66904" lon="-0.41381">
        <ele>13.6</ele>
        <time>2013-06-09T07:31:37Z</time>
      </trkpt>
      <trkpt lat="45.66963" lon="-0.41357">
        <ele>13.12</ele>
        <time>2013-06-09T07:31:56Z</time>
      </trkpt>
      <trkpt lat="45.67003" lon="-0.41339">
        <ele>13.6</ele>
        <time>2013-06-09T07:32:12Z</time>
      </trkpt>
      <trkpt lat="45.67005" lon="-0.41335">
        <ele>13.12</ele>
        <time>2013-06-09T07:32:18Z</time>
      </trkpt>
      <trkpt lat="45.67004" lon="-0.4131">
        <ele>9.75</ele>
        <time>2013-06-09T07:32:32Z</time>
      </trkpt>
      <trkpt lat="45.67007" lon="-0.41299">
        <ele>10.23</ele>
        <time>2013-06-09T07:32:39Z</time>
      </trkpt>
      <trkpt lat="45.67012" lon="-0.413">
        <ele>9.75</ele>
        <time>2013-06-09T07:32:43Z</time>
      </trkpt>
      <trkpt lat="45.67024" lon="-0.413">
        <ele>10.71</ele>
        <time>2013-06-09T07:32:52Z</time>
      </trkpt>
      <trkpt lat="45.67028" lon="-0.41295">
        <ele>11.19</ele>
        <time>2013-06-09T07:32:56Z</time>
      </trkpt>
      <trkpt lat="45.67023" lon="-0.41282">
        <ele>11.67</ele>
        <time>2013-06-09T07:33:04Z</time>
      </trkpt>
      <trkpt lat="45.67011" lon="-0.41263">
        <ele>9.75</ele>
        <time>2013-06-09T07:33:14Z</time>
      </trkpt>
      <trkpt lat="45.66997" lon="-0.41261">
        <ele>11.67</ele>
        <time>2013-06-09T07:33:27Z</time>
      </trkpt>
      <trkpt lat="45.66995" lon="-0.41268">
        <ele>12.15</ele>
        <time>2013-06-09T07:33:30Z</time>
      </trkpt>
      <trkpt lat="45.66994" lon="-0.41277">
        <ele>10.71</ele>
        <time>2013-06-09T07:33:34Z</time>
      </trkpt>
      <trkpt lat="45.66983" lon="-0.41283">
        <ele>10.71</ele>
        <time>2013-06-09T07:33:42Z</time>
      </trkpt>
      <trkpt lat="45.66974" lon="-0.41289">
        <ele>12.63</ele>
        <time>2013-06-09T07:33:48Z</time>
      </trkpt>
      <trkpt lat="45.66971" lon="-0.4129">
        <ele>13.6</ele>
        <time>2013-06-09T07:33:50Z</time>
      </trkpt>
      <trkpt lat="45.66963" lon="-0.41286">
        <ele>16</ele>
        <time>2013-06-09T07:33:56Z</time>
      </trkpt>
      <trkpt lat="45.66959" lon="-0.41283">
        <ele>17.44</ele>
        <time>2013-06-09T07:33:59Z</time>
      </trkpt>
      <trkpt lat="45.66951" lon="-0.41277">
        <ele>19.84</ele>
        <time>2013-06-09T07:34:13Z</time>
      </trkpt>
      <trkpt lat="45.66946" lon="-0.41298">
        <ele>17.92</ele>
        <time>2013-06-09T07:34:27Z</time>
      </trkpt>
      <trkpt lat="45.66943" lon="-0.41299">
        <ele>17.44</ele>
        <time>2013-06-09T07:34:30Z</time>
      </trkpt>
      <trkpt lat="45.66931" lon="-0.413">
        <ele>17.92</ele>
        <time>2013-06-09T07:34:40Z</time>
      </trkpt>
      <trkpt lat="45.66932" lon="-0.41295">
        <ele>18.4</ele>
        <time>2013-06-09T07:34:43Z</time>
      </trkpt>
      <trkpt lat="45.66931" lon="-0.4129">
        <ele>17.92</ele>
        <time>2013-06-09T07:34:46Z</time>
      </trkpt>
      <trkpt lat="45.66928" lon="-0.41285">
        <ele>17.92</ele>
        <time>2013-06-09T07:34:50Z</time>
      </trkpt>
      <trkpt lat="45.6692" lon="-0.41274">
        <ele>18.4</ele>
        <time>2013-06-09T07:34:57Z</time>
      </trkpt>
      <trkpt lat="45.6692" lon="-0.41266">
        <ele>20.32</ele>
        <time>2013-06-09T07:35:03Z</time>
      </trkpt>
      <trkpt lat="45.66919" lon="-0.4126">
        <ele>21.77</ele>
        <time>2013-06-09T07:35:06Z</time>
      </trkpt>
      <trkpt lat="45.66917" lon="-0.41253">
        <ele>22.25</ele>
        <time>2013-06-09T07:35:10Z</time>
      </trkpt>
      <trkpt lat="45.66916" lon="-0.4124">
        <ele>21.29</ele>
        <time>2013-06-09T07:35:21Z</time>
      </trkpt>
      <trkpt lat="45.66911" lon="-0.4123">
        <ele>20.81</ele>
        <time>2013-06-09T07:35:29Z</time>
      </trkpt>
      <trkpt lat="45.66915" lon="-0.41223">
        <ele>20.32</ele>
        <time>2013-06-09T07:35:35Z</time>
      </trkpt>
      <trkpt lat="45.66918" lon="-0.41221">
        <ele>20.81</ele>
        <time>2013-06-09T07:35:39Z</time>
      </trkpt>
      <trkpt lat="45.6692" lon="-0.41217">
        <ele>20.81</ele>
        <time>2013-06-09T07:35:42Z</time>
      </trkpt>
      <trkpt lat="45.66923" lon="-0.41213">
        <ele>20.81</ele>
        <time>2013-06-09T07:35:45Z</time>
      </trkpt>
      <trkpt lat="45.66923" lon="-0.41206">
        <ele>20.81</ele>
        <time>2013-06-09T07:35:49Z</time>
      </trkpt>
      <trkpt lat="45.66918" lon="-0.41197">
        <ele>19.84</ele>
        <time>2013-06-09T07:35:55Z</time>
      </trkpt>
      <trkpt lat="45.66912" lon="-0.41179">
        <ele>18.4</ele>
        <time>2013-06-09T07:36:09Z</time>
      </trkpt>
      <trkpt lat="45.66915" lon="-0.41173">
        <ele>19.36</ele>
        <time>2013-06-09T07:36:12Z</time>
      </trkpt>
      <trkpt lat="45.66925" lon="-0.41166">
        <ele>19.84</ele>
        <time>2013-06-09T07:36:19Z</time>
      </trkpt>
      <trkpt lat="45.66933" lon="-0.41166">
        <ele>19.84</ele>
        <time>2013-06-09T07:36:25Z</time>
      </trkpt>
      <trkpt lat="45.66935" lon="-0.41167">
        <ele>19.36</ele>
        <time>2013-06-09T07:36:27Z</time>
      </trkpt>
      <trkpt lat="45.66942" lon="-0.41161">
        <ele>19.36</ele>
        <time>2013-06-09T07:36:33Z</time>
      </trkpt>
      <trkpt lat="45.66954" lon="-0.4116">
        <ele>19.84</ele>
        <time>2013-06-09T07:36:42Z</time>
      </trkpt>
      <trkpt lat="45.66958" lon="-0.41162">
        <ele>20.81</ele>
        <time>2013-06-09T07:36:55Z</time>
      </trkpt>
      <trkpt lat="45.6696" lon="-0.41163">
        <ele>21.77</ele>
        <time>2013-06-09T07:37:07Z</time>
      </trkpt>
      <trkpt lat="45.66971" lon="-0.41161">
        <ele>22.25</ele>
        <time>2013-06-09T07:37:13Z</time>
      </trkpt>
      <trkpt lat="45.66983" lon="-0.4116">
        <ele>22.25</ele>
        <time>2013-06-09T07:37:20Z</time>
      </trkpt>
      <trkpt lat="45.67008" lon="-0.41139">
        <ele>20.32</ele>
        <time>2013-06-09T07:37:34Z</time>
      </trkpt>
      <trkpt lat="45.67017" lon="-0.4113">
        <ele>19.84</ele>
        <time>2013-06-09T07:37:39Z</time>
      </trkpt>
      <trkpt lat="45.67029" lon="-0.41104">
        <ele>18.88</ele>
        <time>2013-06-09T07:37:50Z</time>
      </trkpt>
      <trkpt lat="45.67027" lon="-0.41094">
        <ele>17.92</ele>
        <time>2013-06-09T07:37:55Z</time>
      </trkpt>
      <trkpt lat="45.67012" lon="-0.41084">
        <ele>19.36</ele>
        <time>2013-06-09T07:38:08Z</time>
      </trkpt>
      <trkpt lat="45.67009" lon="-0.41074">
        <ele>20.81</ele>
        <time>2013-06-09T07:38:19Z</time>
      </trkpt>
      <trkpt lat="45.67009" lon="-0.41073">
        <ele>21.29</ele>
        <time>2013-06-09T07:38:20Z</time>
      </trkpt>
      <trkpt lat="45.67004" lon="-0.41059">
        <ele>21.29</ele>
        <time>2013-06-09T07:38:34Z</time>
      </trkpt>
      <trkpt lat="45.67001" lon="-0.4105">
        <ele>21.77</ele>
        <time>2013-06-09T07:38:45Z</time>
      </trkpt>
      <trkpt lat="45.66998" lon="-0.41046">
        <ele>21.77</ele>
        <time>2013-06-09T07:38:48Z</time>
      </trkpt>
      <trkpt lat="45.66991" lon="-0.41045">
        <ele>21.29</ele>
        <time>2013-06-09T07:38:54Z</time>
      </trkpt>
      <trkpt lat="45.66989" lon="-0.41046">
        <ele>21.77</ele>
        <time>2013-06-09T07:38:56Z</time>
      </trkpt>
      <trkpt lat="45.66985" lon="-0.41045">
        <ele>21.77</ele>
        <time>2013-06-09T07:38:59Z</time>
      </trkpt>
      <trkpt lat="45.66974" lon="-0.41029">
        <ele>22.73</ele>
        <time>2013-06-09T07:39:09Z</time>
      </trkpt>
      <trkpt lat="45.66972" lon="-0.4103">
        <ele>22.73</ele>
        <time>2013-06-09T07:39:11Z</time>
      </trkpt>
      <trkpt lat="45.66963" lon="-0.41025">
        <ele>22.25</ele>
        <time>2013-06-09T07:39:19Z</time>
      </trkpt>
      <trkpt lat="45.66957" lon="-0.41028">
        <ele>21.29</ele>
        <time>2013-06-09T07:39:23Z</time>
      </trkpt>
      <trkpt lat="45.66945" lon="-0.41055">
        <ele>20.32</ele>
        <time>2013-06-09T07:39:36Z</time>
      </trkpt>
      <trkpt lat="45.66939" lon="-0.41062">
        <ele>21.29</ele>
        <time>2013-06-09T07:39:41Z</time>
      </trkpt>
      <trkpt lat="45.66932" lon="-0.41063">
        <ele>21.29</ele>
        <time>2013-06-09T07:39:46Z</time>
      </trkpt>
      <trkpt lat="45.66931" lon="-0.41061">
        <ele>21.29</ele>
        <time>2013-06-09T07:39:48Z</time>
      </trkpt>
      <trkpt lat="45.6693" lon="-0.41052">
        <ele>19.84</ele>
        <time>2013-06-09T07:39:58Z</time>
      </trkpt>
      <trkpt lat="45.66927" lon="-0.41046">
        <ele>20.81</ele>
        <time>2013-06-09T07:40:04Z</time>
      </trkpt>
      <trkpt lat="45.66924" lon="-0.41044">
        <ele>20.32</ele>
        <time>2013-06-09T07:40:06Z</time>
      </trkpt>
      <trkpt lat="45.66921" lon="-0.41041">
        <ele>18.88</ele>
        <time>2013-06-09T07:40:09Z</time>
      </trkpt>
      <trkpt lat="45.66906" lon="-0.41045">
        <ele>16.48</ele>
        <time>2013-06-09T07:40:17Z</time>
      </trkpt>
      <trkpt lat="45.66903" lon="-0.41043">
        <ele>16.48</ele>
        <time>2013-06-09T07:40:20Z</time>
      </trkpt>
      <trkpt lat="45.66901" lon="-0.4104">
        <ele>16</ele>
        <time>2013-06-09T07:40:23Z</time>
      </trkpt>
      <trkpt lat="45.66901" lon="-0.41038">
        <ele>15.52</ele>
        <time>2013-06-09T07:40:25Z</time>
      </trkpt>
      <trkpt lat="45.66886" lon="-0.41032">
        <ele>14.08</ele>
        <time>2013-06-09T07:40:36Z</time>
      </trkpt>
      <trkpt lat="45.66842" lon="-0.41048">
        <ele>15.04</ele>
        <time>2013-06-09T07:40:53Z</time>
      </trkpt>
      <trkpt lat="45.66795" lon="-0.41067">
        <ele>14.56</ele>
        <time>2013-06-09T07:41:07Z</time>
      </trkpt>
      <trkpt lat="45.66783" lon="-0.4105">
        <ele>14.56</ele>
        <time>2013-06-09T07:41:12Z</time>
      </trkpt>
      <trkpt lat="45.6674" lon="-0.40972">
        <ele>14.56</ele>
        <time>2013-06-09T07:41:33Z</time>
      </trkpt>
      <trkpt lat="45.66703" lon="-0.40915">
        <ele>14.08</ele>
        <time>2013-06-09T07:41:51Z</time>
      </trkpt>
      <trkpt lat="45.66701" lon="-0.40916">
        <ele>14.08</ele>
        <time>2013-06-09T07:41:52Z</time>
      </trkpt>
      <trkpt lat="45.66708" lon="-0.409">
        <ele>14.56</ele>
        <time>2013-06-09T07:42:02Z</time>
      </trkpt>
      <trkpt lat="45.66746" lon="-0.40863">
        <ele>14.56</ele>
        <time>2013-06-09T07:42:19Z</time>
      </trkpt>
      <trkpt lat="45.66771" lon="-0.40833">
        <ele>15.52</ele>
        <time>2013-06-09T07:42:31Z</time>
      </trkpt>
      <trkpt lat="45.66769" lon="-0.40817">
        <ele>16</ele>
        <time>2013-06-09T07:42:35Z</time>
      </trkpt>
      <trkpt lat="45.6675" lon="-0.40776">
        <ele>15.52</ele>
        <time>2013-06-09T07:42:45Z</time>
      </trkpt>
      <trkpt lat="45.66742" lon="-0.40763">
        <ele>15.52</ele>
        <time>2013-06-09T07:42:48Z</time>
      </trkpt>
      <trkpt lat="45.66698" lon="-0.40686">
        <ele>17.44</ele>
        <time>2013-06-09T07:43:04Z</time>
      </trkpt>
      <trkpt lat="45.66608" lon="-0.40564">
        <ele>15.52</ele>
        <time>2013-06-09T07:43:30Z</time>
      </trkpt>
      <trkpt lat="45.6659" lon="-0.40543">
        <ele>15.52</ele>
        <time>2013-06-09T07:43:35Z</time>
      </trkpt>
      <trkpt lat="45.66568" lon="-0.40529">
        <ele>16</ele>
        <time>2013-06-09T07:43:40Z</time>
      </trkpt>
      <trkpt lat="45.66499" lon="-0.40509">
        <ele>16</ele>
        <time>2013-06-09T07:43:54Z</time>
      </trkpt>
      <trkpt lat="45.66453" lon="-0.4047">
        <ele>16</ele>
        <time>2013-06-09T07:44:05Z</time>
      </trkpt>
      <trkpt lat="45.66367" lon="-0.40387">
        <ele>16.48</ele>
        <time>2013-06-09T07:44:27Z</time>
      </trkpt>
      <trkpt lat="45.66289" lon="-0.40305">
        <ele>16.48</ele>
        <time>2013-06-09T07:44:48Z</time>
      </trkpt>
      <trkpt lat="45.66283" lon="-0.40266">
        <ele>16.48</ele>
        <time>2013-06-09T07:44:55Z</time>
      </trkpt>
      <trkpt lat="45.66292" lon="-0.40245">
        <ele>16.96</ele>
        <time>2013-06-09T07:44:59Z</time>
      </trkpt>
      <trkpt lat="45.66301" lon="-0.40216">
        <ele>17.44</ele>
        <time>2013-06-09T07:45:04Z</time>
      </trkpt>
      <trkpt lat="45.66306" lon="-0.40172">
        <ele>17.44</ele>
        <time>2013-06-09T07:45:13Z</time>
      </trkpt>
      <trkpt lat="45.6632" lon="-0.40157">
        <ele>16.96</ele>
        <time>2013-06-09T07:45:17Z</time>
      </trkpt>
      <trkpt lat="45.6634" lon="-0.40121">
        <ele>16.48</ele>
        <time>2013-06-09T07:45:25Z</time>
      </trkpt>
      <trkpt lat="45.66309" lon="-0.4009">
        <ele>16</ele>
        <time>2013-06-09T07:45:35Z</time>
      </trkpt>
      <trkpt lat="45.66305" lon="-0.40086">
        <ele>16.48</ele>
        <time>2013-06-09T07:45:36Z</time>
      </trkpt>
      <trkpt lat="45.66298" lon="-0.40058">
        <ele>16.96</ele>
        <time>2013-06-09T07:45:41Z</time>
      </trkpt>
      <trkpt lat="45.663" lon="-0.40046">
        <ele>16.48</ele>
        <time>2013-06-09T07:45:43Z</time>
      </trkpt>
      <trkpt lat="45.66287" lon="-0.40014">
        <ele>16</ele>
        <time>2013-06-09T07:45:52Z</time>
      </trkpt>
      <trkpt lat="45.66302" lon="-0.40003">
        <ele>16.48</ele>
        <time>2013-06-09T07:45:58Z</time>
      </trkpt>
      <trkpt lat="45.66324" lon="-0.39966">
        <ele>15.52</ele>
        <time>2013-06-09T07:46:06Z</time>
      </trkpt>
      <trkpt lat="45.66358" lon="-0.39913">
        <ele>16</ele>
        <time>2013-06-09T07:46:17Z</time>
      </trkpt>
      <trkpt lat="45.66411" lon="-0.39835">
        <ele>14.56</ele>
        <time>2013-06-09T07:46:33Z</time>
      </trkpt>
      <trkpt lat="45.66478" lon="-0.39742">
        <ele>9.75</ele>
        <time>2013-06-09T07:46:49Z</time>
      </trkpt>
      <trkpt lat="45.66491" lon="-0.39729">
        <ele>8.31</ele>
        <time>2013-06-09T07:46:52Z</time>
      </trkpt>
      <trkpt lat="45.66494" lon="-0.39693">
        <ele>6.87</ele>
        <time>2013-06-09T07:46:58Z</time>
      </trkpt>
      <trkpt lat="45.66426" lon="-0.39573">
        <ele>5.42</ele>
        <time>2013-06-09T07:47:18Z</time>
      </trkpt>
      <trkpt lat="45.66391" lon="-0.39521">
        <ele>5.42</ele>
        <time>2013-06-09T07:47:28Z</time>
      </trkpt>
      <trkpt lat="45.66386" lon="-0.39502">
        <ele>4.94</ele>
        <time>2013-06-09T07:47:31Z</time>
      </trkpt>
      <trkpt lat="45.66371" lon="-0.3947">
        <ele>4.94</ele>
        <time>2013-06-09T07:47:37Z</time>
      </trkpt>
      <trkpt lat="45.66378" lon="-0.39452">
        <ele>3.98</ele>
        <time>2013-06-09T07:47:41Z</time>
      </trkpt>
      <trkpt lat="45.66388" lon="-0.39442">
        <ele>3.5</ele>
        <time>2013-06-09T07:47:44Z</time>
      </trkpt>
      <trkpt lat="45.6641" lon="-0.39419">
        <ele>3.02</ele>
        <time>2013-06-09T07:47:50Z</time>
      </trkpt>
      <trkpt lat="45.66444" lon="-0.39376">
        <ele>2.06</ele>
        <time>2013-06-09T07:48:02Z</time>
      </trkpt>
      <trkpt lat="45.66435" lon="-0.39349">
        <ele>2.06</ele>
        <time>2013-06-09T07:48:17Z</time>
      </trkpt>
      <trkpt lat="45.66433" lon="-0.39345">
        <ele>3.02</ele>
        <time>2013-06-09T07:48:23Z</time>
      </trkpt>
      <trkpt lat="45.66421" lon="-0.39329">
        <ele>3.5</ele>
        <time>2013-06-09T07:48:31Z</time>
      </trkpt>
      <trkpt lat="45.66381" lon="-0.39271">
        <ele>3.98</ele>
        <time>2013-06-09T07:48:50Z</time>
      </trkpt>
      <trkpt lat="45.66358" lon="-0.39223">
        <ele>0.62</ele>
        <time>2013-06-09T07:49:05Z</time>
      </trkpt>
      <trkpt lat="45.66349" lon="-0.3918">
        <ele>1.58</ele>
        <time>2013-06-09T07:49:18Z</time>
      </trkpt>
      <trkpt lat="45.6634" lon="-0.39157">
        <ele>1.58</ele>
        <time>2013-06-09T07:49:26Z</time>
      </trkpt>
      <trkpt lat="45.66316" lon="-0.39093">
        <ele>3.5</ele>
        <time>2013-06-09T07:49:44Z</time>
      </trkpt>
      <trkpt lat="45.6629" lon="-0.39027">
        <ele>6.87</ele>
        <time>2013-06-09T07:50:00Z</time>
      </trkpt>
      <trkpt lat="45.66264" lon="-0.38967">
        <ele>5.42</ele>
        <time>2013-06-09T07:50:16Z</time>
      </trkpt>
      <trkpt lat="45.66251" lon="-0.38943">
        <ele>5.91</ele>
        <time>2013-06-09T07:50:23Z</time>
      </trkpt>
      <trkpt lat="45.66215" lon="-0.38962">
        <ele>6.39</ele>
        <time>2013-06-09T07:50:36Z</time>
      </trkpt>
      <trkpt lat="45.66165" lon="-0.38995">
        <ele>6.39</ele>
        <time>2013-06-09T07:50:50Z</time>
      </trkpt>
      <trkpt lat="45.66098" lon="-0.39031">
        <ele>5.42</ele>
        <time>2013-06-09T07:51:07Z</time>
      </trkpt>
      <trkpt lat="45.66011" lon="-0.39089">
        <ele>5.91</ele>
        <time>2013-06-09T07:51:27Z</time>
      </trkpt>
      <trkpt lat="45.65925" lon="-0.39151">
        <ele>5.91</ele>
        <time>2013-06-09T07:51:46Z</time>
      </trkpt>
      <trkpt lat="45.6585" lon="-0.39238">
        <ele>5.42</ele>
        <time>2013-06-09T07:52:05Z</time>
      </trkpt>
      <trkpt lat="45.65845" lon="-0.39244">
        <ele>5.91</ele>
        <time>2013-06-09T07:52:07Z</time>
      </trkpt>
      <trkpt lat="45.65834" lon="-0.39244">
        <ele>5.42</ele>
        <time>2013-06-09T07:52:16Z</time>
      </trkpt>
      <trkpt lat="45.65829" lon="-0.39248">
        <ele>3.98</ele>
        <time>2013-06-09T07:52:24Z</time>
      </trkpt>
      <trkpt lat="45.65825" lon="-0.3925">
        <ele>5.91</ele>
        <time>2013-06-09T07:52:30Z</time>
      </trkpt>
      <trkpt lat="45.65823" lon="-0.39248">
        <ele>5.91</ele>
        <time>2013-06-09T07:52:32Z</time>
      </trkpt>
      <trkpt lat="45.65812" lon="-0.39243">
        <ele>7.83</ele>
        <time>2013-06-09T07:52:46Z</time>
      </trkpt>
      <trkpt lat="45.65801" lon="-0.39247">
        <ele>7.35</ele>
        <time>2013-06-09T07:52:54Z</time>
      </trkpt>
      <trkpt lat="45.65797" lon="-0.39237">
        <ele>5.42</ele>
        <time>2013-06-09T07:53:04Z</time>
      </trkpt>
      <trkpt lat="45.65791" lon="-0.39226">
        <ele>5.91</ele>
        <time>2013-06-09T07:53:15Z</time>
      </trkpt>
      <trkpt lat="45.65787" lon="-0.39214">
        <ele>10.23</ele>
        <time>2013-06-09T07:53:26Z</time>
      </trkpt>
      <trkpt lat="45.6578" lon="-0.3921">
        <ele>13.6</ele>
        <time>2013-06-09T07:53:37Z</time>
      </trkpt>
      <trkpt lat="45.65778" lon="-0.39205">
        <ele>13.6</ele>
        <time>2013-06-09T07:53:40Z</time>
      </trkpt>
      <trkpt lat="45.65782" lon="-0.39191">
        <ele>13.6</ele>
        <time>2013-06-09T07:53:45Z</time>
      </trkpt>
      <trkpt lat="45.65782" lon="-0.39175">
        <ele>13.6</ele>
        <time>2013-06-09T07:53:49Z</time>
      </trkpt>
      <trkpt lat="45.65783" lon="-0.39157">
        <ele>13.6</ele>
        <time>2013-06-09T07:53:54Z</time>
      </trkpt>
      <trkpt lat="45.65773" lon="-0.39151">
        <ele>13.6</ele>
        <time>2013-06-09T07:53:59Z</time>
      </trkpt>
      <trkpt lat="45.65722" lon="-0.39176">
        <ele>11.19</ele>
        <time>2013-06-09T07:54:15Z</time>
      </trkpt>
      <trkpt lat="45.65657" lon="-0.39202">
        <ele>10.71</ele>
        <time>2013-06-09T07:54:31Z</time>
      </trkpt>
      <trkpt lat="45.65628" lon="-0.39212">
        <ele>10.71</ele>
        <time>2013-06-09T07:54:38Z</time>
      </trkpt>
      <trkpt lat="45.65582" lon="-0.39225">
        <ele>11.19</ele>
        <time>2013-06-09T07:54:49Z</time>
      </trkpt>
      <trkpt lat="45.65564" lon="-0.39215">
        <ele>11.67</ele>
        <time>2013-06-09T07:54:54Z</time>
      </trkpt>
      <trkpt lat="45.65513" lon="-0.39095">
        <ele>12.15</ele>
        <time>2013-06-09T07:55:14Z</time>
      </trkpt>
      <trkpt lat="45.65479" lon="-0.38998">
        <ele>11.67</ele>
        <time>2013-06-09T07:55:29Z</time>
      </trkpt>
      <trkpt lat="45.65478" lon="-0.38953">
        <ele>11.19</ele>
        <time>2013-06-09T07:55:35Z</time>
      </trkpt>
      <trkpt lat="45.65512" lon="-0.38826">
        <ele>11.19</ele>
        <time>2013-06-09T07:55:52Z</time>
      </trkpt>
      <trkpt lat="45.65536" lon="-0.38692">
        <ele>10.71</ele>
        <time>2013-06-09T07:56:10Z</time>
      </trkpt>
      <trkpt lat="45.65557" lon="-0.38553">
        <ele>7.83</ele>
        <time>2013-06-09T07:56:29Z</time>
      </trkpt>
      <trkpt lat="45.65534" lon="-0.38535">
        <ele>7.35</ele>
        <time>2013-06-09T07:56:37Z</time>
      </trkpt>
      <trkpt lat="45.65533" lon="-0.38528">
        <ele>7.35</ele>
        <time>2013-06-09T07:56:38Z</time>
      </trkpt>
      <trkpt lat="45.65533" lon="-0.38509">
        <ele>7.35</ele>
        <time>2013-06-09T07:56:41Z</time>
      </trkpt>
      <trkpt lat="45.65513" lon="-0.38452">
        <ele>3.98</ele>
        <time>2013-06-09T07:56:53Z</time>
      </trkpt>
      <trkpt lat="45.65471" lon="-0.38409">
        <ele>5.42</ele>
        <time>2013-06-09T07:57:07Z</time>
      </trkpt>
      <trkpt lat="45.6546" lon="-0.38386">
        <ele>4.94</ele>
        <time>2013-06-09T07:57:12Z</time>
      </trkpt>
      <trkpt lat="45.65448" lon="-0.38371">
        <ele>4.46</ele>
        <time>2013-06-09T07:57:16Z</time>
      </trkpt>
      <trkpt lat="45.65412" lon="-0.38352">
        <ele>6.39</ele>
        <time>2013-06-09T07:57:27Z</time>
      </trkpt>
      <trkpt lat="45.65404" lon="-0.38297">
        <ele>6.39</ele>
        <time>2013-06-09T07:57:38Z</time>
      </trkpt>
      <trkpt lat="45.65391" lon="-0.38293">
        <ele>7.35</ele>
        <time>2013-06-09T07:57:42Z</time>
      </trkpt>
      <trkpt lat="45.65323" lon="-0.383">
        <ele>8.31</ele>
        <time>2013-06-09T07:58:00Z</time>
      </trkpt>
      <trkpt lat="45.65249" lon="-0.38308">
        <ele>7.35</ele>
        <time>2013-06-09T07:58:19Z</time>
      </trkpt>
      <trkpt lat="45.65188" lon="-0.38316">
        <ele>9.27</ele>
        <time>2013-06-09T07:58:35Z</time>
      </trkpt>
      <trkpt lat="45.65157" lon="-0.38345">
        <ele>9.75</ele>
        <time>2013-06-09T07:58:47Z</time>
      </trkpt>
      <trkpt lat="45.65148" lon="-0.38353">
        <ele>10.23</ele>
        <time>2013-06-09T07:58:59Z</time>
      </trkpt>
      <trkpt lat="45.65142" lon="-0.38355">
        <ele>11.19</ele>
        <time>2013-06-09T07:59:10Z</time>
      </trkpt>
      <trkpt lat="45.65137" lon="-0.38335">
        <ele>11.19</ele>
        <time>2013-06-09T07:59:17Z</time>
      </trkpt>
      <trkpt lat="45.6511" lon="-0.38328">
        <ele>11.67</ele>
        <time>2013-06-09T07:59:28Z</time>
      </trkpt>
      <trkpt lat="45.65067" lon="-0.38336">
        <ele>13.6</ele>
        <time>2013-06-09T07:59:43Z</time>
      </trkpt>
      <trkpt lat="45.65029" lon="-0.38344">
        <ele>16.96</ele>
        <time>2013-06-09T07:59:57Z</time>
      </trkpt>
      <trkpt lat="45.6499" lon="-0.38346">
        <ele>22.73</ele>
        <time>2013-06-09T08:00:10Z</time>
      </trkpt>
      <trkpt lat="45.64944" lon="-0.38354">
        <ele>22.25</ele>
        <time>2013-06-09T08:00:24Z</time>
      </trkpt>
      <trkpt lat="45.64916" lon="-0.38358">
        <ele>24.17</ele>
        <time>2013-06-09T08:00:33Z</time>
      </trkpt>
      <trkpt lat="45.64894" lon="-0.38413">
        <ele>21.29</ele>
        <time>2013-06-09T08:00:47Z</time>
      </trkpt>
      <trkpt lat="45.6487" lon="-0.38442">
        <ele>16.96</ele>
        <time>2013-06-09T08:00:59Z</time>
      </trkpt>
      <trkpt lat="45.64853" lon="-0.38454">
        <ele>15.52</ele>
        <time>2013-06-09T08:01:07Z</time>
      </trkpt>
      <trkpt lat="45.6485" lon="-0.38447">
        <ele>15.52</ele>
        <time>2013-06-09T08:01:11Z</time>
      </trkpt>
      <trkpt lat="45.64872" lon="-0.38352">
        <ele>11.19</ele>
        <time>2013-06-09T08:01:29Z</time>
      </trkpt>
      <trkpt lat="45.64902" lon="-0.38303">
        <ele>11.19</ele>
        <time>2013-06-09T08:01:41Z</time>
      </trkpt>
      <trkpt lat="45.64907" lon="-0.38273">
        <ele>12.15</ele>
        <time>2013-06-09T08:01:49Z</time>
      </trkpt>
      <trkpt lat="45.64884" lon="-0.38253">
        <ele>11.67</ele>
        <time>2013-06-09T08:01:57Z</time>
      </trkpt>
      <trkpt lat="45.64859" lon="-0.38251">
        <ele>11.67</ele>
        <time>2013-06-09T08:02:05Z</time>
      </trkpt>
      <trkpt lat="45.64831" lon="-0.38229">
        <ele>13.6</ele>
        <time>2013-06-09T08:02:13Z</time>
      </trkpt>
      <trkpt lat="45.64834" lon="-0.38212">
        <ele>14.08</ele>
        <time>2013-06-09T08:02:18Z</time>
      </trkpt>
      <trkpt lat="45.64842" lon="-0.38196">
        <ele>14.08</ele>
        <time>2013-06-09T08:02:22Z</time>
      </trkpt>
      <trkpt lat="45.64853" lon="-0.38141">
        <ele>12.63</ele>
        <time>2013-06-09T08:02:34Z</time>
      </trkpt>
      <trkpt lat="45.64852" lon="-0.38127">
        <ele>12.63</ele>
        <time>2013-06-09T08:02:38Z</time>
      </trkpt>
      <trkpt lat="45.64825" lon="-0.38092">
        <ele>9.75</ele>
        <time>2013-06-09T08:02:50Z</time>
      </trkpt>
      <trkpt lat="45.64782" lon="-0.38051">
        <ele>7.35</ele>
        <time>2013-06-09T08:03:04Z</time>
      </trkpt>
      <trkpt lat="45.6476" lon="-0.38024">
        <ele>9.27</ele>
        <time>2013-06-09T08:03:15Z</time>
      </trkpt>
      <trkpt lat="45.64751" lon="-0.38006">
        <ele>9.27</ele>
        <time>2013-06-09T08:03:21Z</time>
      </trkpt>
      <trkpt lat="45.64752" lon="-0.37998">
        <ele>8.79</ele>
        <time>2013-06-09T08:03:23Z</time>
      </trkpt>
      <trkpt lat="45.64745" lon="-0.37965">
        <ele>8.31</ele>
        <time>2013-06-09T08:03:33Z</time>
      </trkpt>
      <trkpt lat="45.64743" lon="-0.37962">
        <ele>8.31</ele>
        <time>2013-06-09T08:03:34Z</time>
      </trkpt>
      <trkpt lat="45.64739" lon="-0.37958">
        <ele>8.79</ele>
        <time>2013-06-09T08:03:36Z</time>
      </trkpt>
      <trkpt lat="45.64721" lon="-0.37939">
        <ele>8.79</ele>
        <time>2013-06-09T08:03:44Z</time>
      </trkpt>
      <trkpt lat="45.64694" lon="-0.37894">
        <ele>9.27</ele>
        <time>2013-06-09T08:03:59Z</time>
      </trkpt>
      <trkpt lat="45.64652" lon="-0.37863">
        <ele>14.56</ele>
        <time>2013-06-09T08:04:14Z</time>
      </trkpt>
      <trkpt lat="45.64665" lon="-0.37808">
        <ele>13.6</ele>
        <time>2013-06-09T08:04:27Z</time>
      </trkpt>
      <trkpt lat="45.64691" lon="-0.37757">
        <ele>9.75</ele>
        <time>2013-06-09T08:04:41Z</time>
      </trkpt>
      <trkpt lat="45.64742" lon="-0.37732">
        <ele>5.91</ele>
        <time>2013-06-09T08:04:56Z</time>
      </trkpt>
      <trkpt lat="45.64807" lon="-0.37706">
        <ele>6.87</ele>
        <time>2013-06-09T08:05:14Z</time>
      </trkpt>
      <trkpt lat="45.64813" lon="-0.37707">
        <ele>6.39</ele>
        <time>2013-06-09T08:05:16Z</time>
      </trkpt>
      <trkpt lat="45.6482" lon="-0.37687">
        <ele>5.42</ele>
        <time>2013-06-09T08:05:22Z</time>
      </trkpt>
      <trkpt lat="45.64824" lon="-0.37631">
        <ele>9.27</ele>
        <time>2013-06-09T08:05:33Z</time>
      </trkpt>
      <trkpt lat="45.6483" lon="-0.37609">
        <ele>11.19</ele>
        <time>2013-06-09T08:05:38Z</time>
      </trkpt>
      <trkpt lat="45.64838" lon="-0.37594">
        <ele>11.67</ele>
        <time>2013-06-09T08:05:42Z</time>
      </trkpt>
      <trkpt lat="45.64838" lon="-0.3757">
        <ele>12.15</ele>
        <time>2013-06-09T08:05:47Z</time>
      </trkpt>
      <trkpt lat="45.64842" lon="-0.3756">
        <ele>11.67</ele>
        <time>2013-06-09T08:05:49Z</time>
      </trkpt>
      <trkpt lat="45.64847" lon="-0.37523">
        <ele>11.19</ele>
        <time>2013-06-09T08:05:56Z</time>
      </trkpt>
      <trkpt lat="45.64838" lon="-0.37515">
        <ele>9.75</ele>
        <time>2013-06-09T08:06:04Z</time>
      </trkpt>
      <trkpt lat="45.64829" lon="-0.37514">
        <ele>9.27</ele>
        <time>2013-06-09T08:06:14Z</time>
      </trkpt>
      <trkpt lat="45.64809" lon="-0.3753">
        <ele>9.27</ele>
        <time>2013-06-09T08:06:27Z</time>
      </trkpt>
      <trkpt lat="45.64796" lon="-0.37536">
        <ele>10.71</ele>
        <time>2013-06-09T08:06:33Z</time>
      </trkpt>
      <trkpt lat="45.64792" lon="-0.37534">
        <ele>11.19</ele>
        <time>2013-06-09T08:06:35Z</time>
      </trkpt>
      <trkpt lat="45.64761" lon="-0.37512">
        <ele>15.52</ele>
        <time>2013-06-09T08:06:48Z</time>
      </trkpt>
      <trkpt lat="45.64708" lon="-0.37524">
        <ele>18.88</ele>
        <time>2013-06-09T08:07:04Z</time>
      </trkpt>
      <trkpt lat="45.64667" lon="-0.3754">
        <ele>16</ele>
        <time>2013-06-09T08:07:17Z</time>
      </trkpt>
      <trkpt lat="45.64616" lon="-0.37569">
        <ele>16.96</ele>
        <time>2013-06-09T08:07:34Z</time>
      </trkpt>
      <trkpt lat="45.64574" lon="-0.37582">
        <ele>19.36</ele>
        <time>2013-06-09T08:07:47Z</time>
      </trkpt>
      <trkpt lat="45.64554" lon="-0.37588">
        <ele>22.25</ele>
        <time>2013-06-09T08:07:53Z</time>
      </trkpt>
      <trkpt lat="45.64541" lon="-0.3757">
        <ele>21.29</ele>
        <time>2013-06-09T08:07:59Z</time>
      </trkpt>
      <trkpt lat="45.64502" lon="-0.37574">
        <ele>22.25</ele>
        <time>2013-06-09T08:08:11Z</time>
      </trkpt>
      <trkpt lat="45.64483" lon="-0.37587">
        <ele>21.77</ele>
        <time>2013-06-09T08:08:16Z</time>
      </trkpt>
      <trkpt lat="45.64438" lon="-0.37615">
        <ele>20.32</ele>
        <time>2013-06-09T08:08:28Z</time>
      </trkpt>
      <trkpt lat="45.64424" lon="-0.37616">
        <ele>20.32</ele>
        <time>2013-06-09T08:08:32Z</time>
      </trkpt>
      <trkpt lat="45.64377" lon="-0.37635">
        <ele>18.88</ele>
        <time>2013-06-09T08:08:45Z</time>
      </trkpt>
      <trkpt lat="45.64351" lon="-0.37656">
        <ele>17.92</ele>
        <time>2013-06-09T08:08:53Z</time>
      </trkpt>
      <trkpt lat="45.64321" lon="-0.37695">
        <ele>19.84</ele>
        <time>2013-06-09T08:09:05Z</time>
      </trkpt>
      <trkpt lat="45.64313" lon="-0.37705">
        <ele>21.29</ele>
        <time>2013-06-09T08:09:08Z</time>
      </trkpt>
      <trkpt lat="45.64305" lon="-0.37735">
        <ele>24.17</ele>
        <time>2013-06-09T08:09:16Z</time>
      </trkpt>
      <trkpt lat="45.64281" lon="-0.37772">
        <ele>24.17</ele>
        <time>2013-06-09T08:09:28Z</time>
      </trkpt>
      <trkpt lat="45.64271" lon="-0.37815">
        <ele>24.17</ele>
        <time>2013-06-09T08:09:40Z</time>
      </trkpt>
      <trkpt lat="45.64266" lon="-0.37833">
        <ele>25.13</ele>
        <time>2013-06-09T08:09:45Z</time>
      </trkpt>
      <trkpt lat="45.64251" lon="-0.37839">
        <ele>26.57</ele>
        <time>2013-06-09T08:09:51Z</time>
      </trkpt>
      <trkpt lat="45.64208" lon="-0.3784">
        <ele>25.13</ele>
        <time>2013-06-09T08:10:04Z</time>
      </trkpt>
      <trkpt lat="45.64163" lon="-0.37853">
        <ele>25.13</ele>
        <time>2013-06-09T08:10:16Z</time>
      </trkpt>
      <trkpt lat="45.64122" lon="-0.37867">
        <ele>22.25</ele>
        <time>2013-06-09T08:10:30Z</time>
      </trkpt>
      <trkpt lat="45.64085" lon="-0.37876">
        <ele>19.84</ele>
        <time>2013-06-09T08:10:43Z</time>
      </trkpt>
      <trkpt lat="45.64043" lon="-0.37891">
        <ele>15.52</ele>
        <time>2013-06-09T08:10:59Z</time>
      </trkpt>
      <trkpt lat="45.64006" lon="-0.37901">
        <ele>13.12</ele>
        <time>2013-06-09T08:11:15Z</time>
      </trkpt>
      <trkpt lat="45.63994" lon="-0.37906">
        <ele>13.6</ele>
        <time>2013-06-09T08:11:27Z</time>
      </trkpt>
      <trkpt lat="45.63994" lon="-0.37906">
        <ele>13.6</ele>
        <time>2013-06-09T08:11:57Z</time>
      </trkpt>
      <trkpt lat="45.63994" lon="-0.37906">
        <ele>12.63</ele>
        <time>2013-06-09T08:12:25Z</time>
      </trkpt>
      <trkpt lat="45.63992" lon="-0.37907">
        <ele>12.63</ele>
        <time>2013-06-09T08:12:26Z</time>
      </trkpt>
      <trkpt lat="45.6399" lon="-0.37903">
        <ele>11.67</ele>
        <time>2013-06-09T08:12:39Z</time>
      </trkpt>
      <trkpt lat="45.63989" lon="-0.37904">
        <ele>11.67</ele>
        <time>2013-06-09T08:13:01Z</time>
      </trkpt>
      <trkpt lat="45.63989" lon="-0.37904">
        <ele>11.67</ele>
        <time>2013-06-09T08:13:27Z</time>
      </trkpt>
      <trkpt lat="45.63989" lon="-0.37904">
        <ele>11.67</ele>
        <time>2013-06-09T08:13:49Z</time>
      </trkpt>
      <trkpt lat="45.63989" lon="-0.37902">
        <ele>11.67</ele>
        <time>2013-06-09T08:13:55Z</time>
      </trkpt>
      <trkpt lat="45.63984" lon="-0.37896">
        <ele>11.67</ele>
        <time>2013-06-09T08:13:58Z</time>
      </trkpt>
      <trkpt lat="45.6396" lon="-0.37856">
        <ele>10.71</ele>
        <time>2013-06-09T08:14:09Z</time>
      </trkpt>
      <trkpt lat="45.63912" lon="-0.37772">
        <ele>11.67</ele>
        <time>2013-06-09T08:14:27Z</time>
      </trkpt>
      <trkpt lat="45.63883" lon="-0.37723">
        <ele>11.67</ele>
        <time>2013-06-09T08:14:38Z</time>
      </trkpt>
      <trkpt lat="45.63859" lon="-0.37681">
        <ele>11.67</ele>
        <time>2013-06-09T08:14:47Z</time>
      </trkpt>
      <trkpt lat="45.6382" lon="-0.37613">
        <ele>11.19</ele>
        <time>2013-06-09T08:15:00Z</time>
      </trkpt>
      <trkpt lat="45.63755" lon="-0.37504">
        <ele>11.19</ele>
        <time>2013-06-09T08:15:20Z</time>
      </trkpt>
      <trkpt lat="45.63689" lon="-0.3739">
        <ele>10.71</ele>
        <time>2013-06-09T08:15:41Z</time>
      </trkpt>
      <trkpt lat="45.63647" lon="-0.37303">
        <ele>9.27</ele>
        <time>2013-06-09T08:15:57Z</time>
      </trkpt>
      <trkpt lat="45.63611" lon="-0.37303">
        <ele>9.27</ele>
        <time>2013-06-09T08:16:06Z</time>
      </trkpt>
      <trkpt lat="45.63604" lon="-0.37313">
        <ele>8.79</ele>
        <time>2013-06-09T08:16:08Z</time>
      </trkpt>
      <trkpt lat="45.6357" lon="-0.37361">
        <ele>8.79</ele>
        <time>2013-06-09T08:16:18Z</time>
      </trkpt>
      <trkpt lat="45.63542" lon="-0.37396">
        <ele>9.27</ele>
        <time>2013-06-09T08:16:26Z</time>
      </trkpt>
      <trkpt lat="45.63535" lon="-0.37411">
        <ele>8.79</ele>
        <time>2013-06-09T08:16:29Z</time>
      </trkpt>
      <trkpt lat="45.63504" lon="-0.3751">
        <ele>9.75</ele>
        <time>2013-06-09T08:16:47Z</time>
      </trkpt>
      <trkpt lat="45.63487" lon="-0.37554">
        <ele>9.27</ele>
        <time>2013-06-09T08:16:55Z</time>
      </trkpt>
      <trkpt lat="45.63433" lon="-0.37627">
        <ele>8.79</ele>
        <time>2013-06-09T08:17:13Z</time>
      </trkpt>
      <trkpt lat="45.63378" lon="-0.37718">
        <ele>9.27</ele>
        <time>2013-06-09T08:17:33Z</time>
      </trkpt>
      <trkpt lat="45.63356" lon="-0.37829">
        <ele>9.27</ele>
        <time>2013-06-09T08:17:53Z</time>
      </trkpt>
      <trkpt lat="45.6335" lon="-0.37892">
        <ele>9.75</ele>
        <time>2013-06-09T08:18:04Z</time>
      </trkpt>
      <trkpt lat="45.63325" lon="-0.37953">
        <ele>11.67</ele>
        <time>2013-06-09T08:18:18Z</time>
      </trkpt>
      <trkpt lat="45.63317" lon="-0.37968">
        <ele>12.15</ele>
        <time>2013-06-09T08:18:21Z</time>
      </trkpt>
      <trkpt lat="45.63272" lon="-0.38055">
        <ele>11.67</ele>
        <time>2013-06-09T08:18:39Z</time>
      </trkpt>
      <trkpt lat="45.63235" lon="-0.38145">
        <ele>12.15</ele>
        <time>2013-06-09T08:18:56Z</time>
      </trkpt>
      <trkpt lat="45.63185" lon="-0.3824">
        <ele>11.19</ele>
        <time>2013-06-09T08:19:16Z</time>
      </trkpt>
      <trkpt lat="45.63126" lon="-0.38317">
        <ele>10.23</ele>
        <time>2013-06-09T08:19:36Z</time>
      </trkpt>
      <trkpt lat="45.63069" lon="-0.38388">
        <ele>9.27</ele>
        <time>2013-06-09T08:19:57Z</time>
      </trkpt>
      <trkpt lat="45.63053" lon="-0.38392">
        <ele>9.27</ele>
        <time>2013-06-09T08:20:02Z</time>
      </trkpt>
      <trkpt lat="45.63042" lon="-0.38382">
        <ele>8.79</ele>
        <time>2013-06-09T08:20:05Z</time>
      </trkpt>
      <trkpt lat="45.6298" lon="-0.38333">
        <ele>10.23</ele>
        <time>2013-06-09T08:20:21Z</time>
      </trkpt>
      <trkpt lat="45.6293" lon="-0.38291">
        <ele>12.63</ele>
        <time>2013-06-09T08:20:37Z</time>
      </trkpt>
      <trkpt lat="45.62888" lon="-0.38255">
        <ele>14.08</ele>
        <time>2013-06-09T08:20:53Z</time>
      </trkpt>
      <trkpt lat="45.62879" lon="-0.38264">
        <ele>14.08</ele>
        <time>2013-06-09T08:20:57Z</time>
      </trkpt>
      <trkpt lat="45.62859" lon="-0.38304">
        <ele>12.15</ele>
        <time>2013-06-09T08:21:05Z</time>
      </trkpt>
      <trkpt lat="45.62829" lon="-0.38375">
        <ele>10.71</ele>
        <time>2013-06-09T08:21:17Z</time>
      </trkpt>
      <trkpt lat="45.62809" lon="-0.38401">
        <ele>11.67</ele>
        <time>2013-06-09T08:21:23Z</time>
      </trkpt>
      <trkpt lat="45.62733" lon="-0.38467">
        <ele>10.71</ele>
        <time>2013-06-09T08:21:40Z</time>
      </trkpt>
      <trkpt lat="45.62653" lon="-0.38541">
        <ele>11.19</ele>
        <time>2013-06-09T08:21:57Z</time>
      </trkpt>
      <trkpt lat="45.62561" lon="-0.38623">
        <ele>11.67</ele>
        <time>2013-06-09T08:22:17Z</time>
      </trkpt>
      <trkpt lat="45.62478" lon="-0.38697">
        <ele>13.12</ele>
        <time>2013-06-09T08:22:35Z</time>
      </trkpt>
      <trkpt lat="45.62377" lon="-0.38788">
        <ele>13.12</ele>
        <time>2013-06-09T08:22:57Z</time>
      </trkpt>
      <trkpt lat="45.62281" lon="-0.38875">
        <ele>12.15</ele>
        <time>2013-06-09T08:23:18Z</time>
      </trkpt>
      <trkpt lat="45.62182" lon="-0.38963">
        <ele>12.15</ele>
        <time>2013-06-09T08:23:40Z</time>
      </trkpt>
      <trkpt lat="45.62132" lon="-0.38999">
        <ele>12.15</ele>
        <time>2013-06-09T08:23:55Z</time>
      </trkpt>
      <trkpt lat="45.62129" lon="-0.39006">
        <ele>12.15</ele>
        <time>2013-06-09T08:23:58Z</time>
      </trkpt>
      <trkpt lat="45.62118" lon="-0.39009">
        <ele>10.71</ele>
        <time>2013-06-09T08:24:07Z</time>
      </trkpt>
      <trkpt lat="45.62114" lon="-0.39015">
        <ele>10.71</ele>
        <time>2013-06-09T08:24:10Z</time>
      </trkpt>
      <trkpt lat="45.62111" lon="-0.39026">
        <ele>11.19</ele>
        <time>2013-06-09T08:24:15Z</time>
      </trkpt>
      <trkpt lat="45.62108" lon="-0.39044">
        <ele>14.08</ele>
        <time>2013-06-09T08:24:27Z</time>
      </trkpt>
      <trkpt lat="45.62107" lon="-0.39046">
        <ele>14.08</ele>
        <time>2013-06-09T08:24:28Z</time>
      </trkpt>
      <trkpt lat="45.62105" lon="-0.39063">
        <ele>14.56</ele>
        <time>2013-06-09T08:24:34Z</time>
      </trkpt>
      <trkpt lat="45.62092" lon="-0.39098">
        <ele>14.56</ele>
        <time>2013-06-09T08:24:45Z</time>
      </trkpt>
      <trkpt lat="45.62076" lon="-0.39104">
        <ele>15.52</ele>
        <time>2013-06-09T08:24:52Z</time>
      </trkpt>
      <trkpt lat="45.6206" lon="-0.39112">
        <ele>15.52</ele>
        <time>2013-06-09T08:25:00Z</time>
      </trkpt>
      <trkpt lat="45.62046" lon="-0.39147">
        <ele>16</ele>
        <time>2013-06-09T08:25:11Z</time>
      </trkpt>
      <trkpt lat="45.62036" lon="-0.39144">
        <ele>17.92</ele>
        <time>2013-06-09T08:25:16Z</time>
      </trkpt>
      <trkpt lat="45.62022" lon="-0.39129">
        <ele>19.84</ele>
        <time>2013-06-09T08:25:22Z</time>
      </trkpt>
      <trkpt lat="45.62024" lon="-0.39102">
        <ele>22.25</ele>
        <time>2013-06-09T08:25:33Z</time>
      </trkpt>
      <trkpt lat="45.62026" lon="-0.39099">
        <ele>22.73</ele>
        <time>2013-06-09T08:25:36Z</time>
      </trkpt>
      <trkpt lat="45.62028" lon="-0.39087">
        <ele>22.73</ele>
        <time>2013-06-09T08:25:42Z</time>
      </trkpt>
      <trkpt lat="45.62029" lon="-0.39063">
        <ele>23.21</ele>
        <time>2013-06-09T08:25:50Z</time>
      </trkpt>
      <trkpt lat="45.62027" lon="-0.39046">
        <ele>22.73</ele>
        <time>2013-06-09T08:25:58Z</time>
      </trkpt>
      <trkpt lat="45.62023" lon="-0.39045">
        <ele>22.25</ele>
        <time>2013-06-09T08:26:02Z</time>
      </trkpt>
      <trkpt lat="45.62019" lon="-0.39043">
        <ele>22.25</ele>
        <time>2013-06-09T08:26:04Z</time>
      </trkpt>
      <trkpt lat="45.62011" lon="-0.39044">
        <ele>22.25</ele>
        <time>2013-06-09T08:26:08Z</time>
      </trkpt>
      <trkpt lat="45.62006" lon="-0.39044">
        <ele>22.73</ele>
        <time>2013-06-09T08:26:10Z</time>
      </trkpt>
      <trkpt lat="45.61995" lon="-0.39035">
        <ele>22.73</ele>
        <time>2013-06-09T08:26:15Z</time>
      </trkpt>
      <trkpt lat="45.6199" lon="-0.3903">
        <ele>21.77</ele>
        <time>2013-06-09T08:26:19Z</time>
      </trkpt>
      <trkpt lat="45.61974" lon="-0.39017">
        <ele>19.84</ele>
        <time>2013-06-09T08:26:29Z</time>
      </trkpt>
      <trkpt lat="45.61959" lon="-0.38971">
        <ele>19.36</ele>
        <time>2013-06-09T08:26:41Z</time>
      </trkpt>
      <trkpt lat="45.61941" lon="-0.38981">
        <ele>20.32</ele>
        <time>2013-06-09T08:26:50Z</time>
      </trkpt>
      <trkpt lat="45.61918" lon="-0.39056">
        <ele>20.81</ele>
        <time>2013-06-09T08:27:08Z</time>
      </trkpt>
      <trkpt lat="45.61894" lon="-0.39115">
        <ele>20.81</ele>
        <time>2013-06-09T08:27:24Z</time>
      </trkpt>
      <trkpt lat="45.61876" lon="-0.39184">
        <ele>20.81</ele>
        <time>2013-06-09T08:27:41Z</time>
      </trkpt>
      <trkpt lat="45.61868" lon="-0.39214">
        <ele>21.77</ele>
        <time>2013-06-09T08:27:50Z</time>
      </trkpt>
      <trkpt lat="45.6187" lon="-0.39224">
        <ele>21.29</ele>
        <time>2013-06-09T08:27:54Z</time>
      </trkpt>
      <trkpt lat="45.61875" lon="-0.39251">
        <ele>14.08</ele>
        <time>2013-06-09T08:28:04Z</time>
      </trkpt>
      <trkpt lat="45.61879" lon="-0.39264">
        <ele>11.19</ele>
        <time>2013-06-09T08:28:12Z</time>
      </trkpt>
      <trkpt lat="45.61879" lon="-0.39272">
        <ele>11.19</ele>
        <time>2013-06-09T08:28:15Z</time>
      </trkpt>
      <trkpt lat="45.61877" lon="-0.39306">
        <ele>14.56</ele>
        <time>2013-06-09T08:28:27Z</time>
      </trkpt>
      <trkpt lat="45.61878" lon="-0.39308">
        <ele>15.04</ele>
        <time>2013-06-09T08:28:28Z</time>
      </trkpt>
      <trkpt lat="45.61892" lon="-0.39336">
        <ele>18.4</ele>
        <time>2013-06-09T08:28:39Z</time>
      </trkpt>
      <trkpt lat="45.61904" lon="-0.39348">
        <ele>19.84</ele>
        <time>2013-06-09T08:28:49Z</time>
      </trkpt>
      <trkpt lat="45.61906" lon="-0.39354">
        <ele>19.36</ele>
        <time>2013-06-09T08:28:51Z</time>
      </trkpt>
      <trkpt lat="45.61916" lon="-0.39373">
        <ele>19.84</ele>
        <time>2013-06-09T08:28:57Z</time>
      </trkpt>
      <trkpt lat="45.61911" lon="-0.39391">
        <ele>20.81</ele>
        <time>2013-06-09T08:29:03Z</time>
      </trkpt>
      <trkpt lat="45.61902" lon="-0.39404">
        <ele>22.25</ele>
        <time>2013-06-09T08:29:08Z</time>
      </trkpt>
      <trkpt lat="45.61893" lon="-0.39416">
        <ele>22.73</ele>
        <time>2013-06-09T08:29:13Z</time>
      </trkpt>
      <trkpt lat="45.61855" lon="-0.39453">
        <ele>24.17</ele>
        <time>2013-06-09T08:29:29Z</time>
      </trkpt>
      <trkpt lat="45.61819" lon="-0.39484">
        <ele>28.5</ele>
        <time>2013-06-09T08:29:43Z</time>
      </trkpt>
      <trkpt lat="45.61802" lon="-0.39504">
        <ele>28.5</ele>
        <time>2013-06-09T08:29:51Z</time>
      </trkpt>
      <trkpt lat="45.61771" lon="-0.39537">
        <ele>25.13</ele>
        <time>2013-06-09T08:30:04Z</time>
      </trkpt>
      <trkpt lat="45.61755" lon="-0.39524">
        <ele>22.73</ele>
        <time>2013-06-09T08:30:16Z</time>
      </trkpt>
      <trkpt lat="45.61734" lon="-0.39481">
        <ele>21.29</ele>
        <time>2013-06-09T08:30:30Z</time>
      </trkpt>
      <trkpt lat="45.617" lon="-0.39415">
        <ele>20.32</ele>
        <time>2013-06-09T08:30:47Z</time>
      </trkpt>
      <trkpt lat="45.61674" lon="-0.39352">
        <ele>19.36</ele>
        <time>2013-06-09T08:31:01Z</time>
      </trkpt>
      <trkpt lat="45.61622" lon="-0.39252">
        <ele>17.92</ele>
        <time>2013-06-09T08:31:21Z</time>
      </trkpt>
      <trkpt lat="45.61628" lon="-0.39223">
        <ele>17.44</ele>
        <time>2013-06-09T08:31:27Z</time>
      </trkpt>
      <trkpt lat="45.61621" lon="-0.39204">
        <ele>16.96</ele>
        <time>2013-06-09T08:31:31Z</time>
      </trkpt>
      <trkpt lat="45.61577" lon="-0.39139">
        <ele>17.92</ele>
        <time>2013-06-09T08:31:48Z</time>
      </trkpt>
      <trkpt lat="45.61533" lon="-0.39086">
        <ele>19.84</ele>
        <time>2013-06-09T08:32:05Z</time>
      </trkpt>
      <trkpt lat="45.61489" lon="-0.39037">
        <ele>19.84</ele>
        <time>2013-06-09T08:32:22Z</time>
      </trkpt>
      <trkpt lat="45.61477" lon="-0.39024">
        <ele>20.32</ele>
        <time>2013-06-09T08:32:27Z</time>
      </trkpt>
      <trkpt lat="45.61467" lon="-0.3903">
        <ele>19.84</ele>
        <time>2013-06-09T08:32:31Z</time>
      </trkpt>
      <trkpt lat="45.61422" lon="-0.39107">
        <ele>17.92</ele>
        <time>2013-06-09T08:32:50Z</time>
      </trkpt>
      <trkpt lat="45.61382" lon="-0.39174">
        <ele>18.4</ele>
        <time>2013-06-09T08:33:07Z</time>
      </trkpt>
      <trkpt lat="45.61329" lon="-0.39261">
        <ele>19.84</ele>
        <time>2013-06-09T08:33:28Z</time>
      </trkpt>
      <trkpt lat="45.61275" lon="-0.39334">
        <ele>20.32</ele>
        <time>2013-06-09T08:33:49Z</time>
      </trkpt>
      <trkpt lat="45.61253" lon="-0.39273">
        <ele>23.21</ele>
        <time>2013-06-09T08:34:04Z</time>
      </trkpt>
      <trkpt lat="45.61235" lon="-0.39205">
        <ele>26.57</ele>
        <time>2013-06-09T08:34:23Z</time>
      </trkpt>
      <trkpt lat="45.61221" lon="-0.39147">
        <ele>28.98</ele>
        <time>2013-06-09T08:34:42Z</time>
      </trkpt>
      <trkpt lat="45.61202" lon="-0.39088">
        <ele>31.86</ele>
        <time>2013-06-09T08:35:01Z</time>
      </trkpt>
      <trkpt lat="45.61172" lon="-0.39023">
        <ele>32.82</ele>
        <time>2013-06-09T08:35:20Z</time>
      </trkpt>
      <trkpt lat="45.6113" lon="-0.38947">
        <ele>32.82</ele>
        <time>2013-06-09T08:35:41Z</time>
      </trkpt>
      <trkpt lat="45.61108" lon="-0.38909">
        <ele>31.86</ele>
        <time>2013-06-09T08:35:50Z</time>
      </trkpt>
      <trkpt lat="45.61049" lon="-0.38801">
        <ele>28.5</ele>
        <time>2013-06-09T08:36:11Z</time>
      </trkpt>
      <trkpt lat="45.60987" lon="-0.38696">
        <ele>21.29</ele>
        <time>2013-06-09T08:36:25Z</time>
      </trkpt>
      <trkpt lat="45.60953" lon="-0.38639">
        <ele>17.44</ele>
        <time>2013-06-09T08:36:34Z</time>
      </trkpt>
      <trkpt lat="45.60935" lon="-0.38601">
        <ele>16</ele>
        <time>2013-06-09T08:36:41Z</time>
      </trkpt>
      <trkpt lat="45.60901" lon="-0.38523">
        <ele>15.52</ele>
        <time>2013-06-09T08:36:56Z</time>
      </trkpt>
      <trkpt lat="45.60884" lon="-0.38469">
        <ele>20.81</ele>
        <time>2013-06-09T08:37:11Z</time>
      </trkpt>
      <trkpt lat="45.60864" lon="-0.38427">
        <ele>23.69</ele>
        <time>2013-06-09T08:37:27Z</time>
      </trkpt>
      <trkpt lat="45.60845" lon="-0.38388">
        <ele>24.17</ele>
        <time>2013-06-09T08:37:40Z</time>
      </trkpt>
      <trkpt lat="45.60826" lon="-0.38351">
        <ele>23.69</ele>
        <time>2013-06-09T08:37:49Z</time>
      </trkpt>
      <trkpt lat="45.60815" lon="-0.38332">
        <ele>23.21</ele>
        <time>2013-06-09T08:37:53Z</time>
      </trkpt>
      <trkpt lat="45.60802" lon="-0.38311">
        <ele>21.77</ele>
        <time>2013-06-09T08:37:57Z</time>
      </trkpt>
      <trkpt lat="45.60777" lon="-0.3828">
        <ele>20.32</ele>
        <time>2013-06-09T08:38:03Z</time>
      </trkpt>
      <trkpt lat="45.60729" lon="-0.38206">
        <ele>22.25</ele>
        <time>2013-06-09T08:38:20Z</time>
      </trkpt>
      <trkpt lat="45.60689" lon="-0.38129">
        <ele>24.17</ele>
        <time>2013-06-09T08:38:40Z</time>
      </trkpt>
      <trkpt lat="45.60649" lon="-0.3805">
        <ele>23.69</ele>
        <time>2013-06-09T08:38:59Z</time>
      </trkpt>
      <trkpt lat="45.606" lon="-0.3797">
        <ele>23.21</ele>
        <time>2013-06-09T08:39:17Z</time>
      </trkpt>
      <trkpt lat="45.60589" lon="-0.37951">
        <ele>23.21</ele>
        <time>2013-06-09T08:39:21Z</time>
      </trkpt>
      <trkpt lat="45.60574" lon="-0.37931">
        <ele>23.21</ele>
        <time>2013-06-09T08:39:26Z</time>
      </trkpt>
      <trkpt lat="45.60521" lon="-0.37836">
        <ele>21.29</ele>
        <time>2013-06-09T08:39:42Z</time>
      </trkpt>
      <trkpt lat="45.60501" lon="-0.37792">
        <ele>19.36</ele>
        <time>2013-06-09T08:39:48Z</time>
      </trkpt>
      <trkpt lat="45.60485" lon="-0.37722">
        <ele>17.44</ele>
        <time>2013-06-09T08:39:56Z</time>
      </trkpt>
      <trkpt lat="45.6046" lon="-0.37633">
        <ele>16.48</ele>
        <time>2013-06-09T08:40:07Z</time>
      </trkpt>
      <trkpt lat="45.60457" lon="-0.37599">
        <ele>16</ele>
        <time>2013-06-09T08:40:11Z</time>
      </trkpt>
      <trkpt lat="45.6047" lon="-0.37495">
        <ele>13.12</ele>
        <time>2013-06-09T08:40:24Z</time>
      </trkpt>
      <trkpt lat="45.60487" lon="-0.3747">
        <ele>13.6</ele>
        <time>2013-06-09T08:40:33Z</time>
      </trkpt>
      <trkpt lat="45.60487" lon="-0.3747">
        <ele>14.08</ele>
        <time>2013-06-09T08:40:48Z</time>
      </trkpt>
      <trkpt lat="45.60488" lon="-0.37469">
        <ele>14.56</ele>
        <time>2013-06-09T08:41:10Z</time>
      </trkpt>
      <trkpt lat="45.60488" lon="-0.37469">
        <ele>15.04</ele>
        <time>2013-06-09T08:41:25Z</time>
      </trkpt>
      <trkpt lat="45.60469" lon="-0.37499">
        <ele>14.08</ele>
        <time>2013-06-09T08:41:37Z</time>
      </trkpt>
      <trkpt lat="45.60468" lon="-0.37504">
        <ele>14.08</ele>
        <time>2013-06-09T08:41:38Z</time>
      </trkpt>
      <trkpt lat="45.60467" lon="-0.37514">
        <ele>14.08</ele>
        <time>2013-06-09T08:41:40Z</time>
      </trkpt>
      <trkpt lat="45.6046" lon="-0.37623">
        <ele>15.52</ele>
        <time>2013-06-09T08:42:00Z</time>
      </trkpt>
      <trkpt lat="45.60483" lon="-0.3771">
        <ele>16.96</ele>
        <time>2013-06-09T08:42:16Z</time>
      </trkpt>
      <trkpt lat="45.60502" lon="-0.37792">
        <ele>17.92</ele>
        <time>2013-06-09T08:42:31Z</time>
      </trkpt>
      <trkpt lat="45.60539" lon="-0.37868">
        <ele>20.32</ele>
        <time>2013-06-09T08:42:50Z</time>
      </trkpt>
      <trkpt lat="45.60598" lon="-0.37962">
        <ele>22.73</ele>
        <time>2013-06-09T08:43:11Z</time>
      </trkpt>
      <trkpt lat="45.60668" lon="-0.38079">
        <ele>23.69</ele>
        <time>2013-06-09T08:43:34Z</time>
      </trkpt>
      <trkpt lat="45.6071" lon="-0.38168">
        <ele>22.73</ele>
        <time>2013-06-09T08:43:49Z</time>
      </trkpt>
      <trkpt lat="45.60775" lon="-0.38279">
        <ele>17.92</ele>
        <time>2013-06-09T08:44:06Z</time>
      </trkpt>
      <trkpt lat="45.60833" lon="-0.38365">
        <ele>21.77</ele>
        <time>2013-06-09T08:44:22Z</time>
      </trkpt>
      <trkpt lat="45.60866" lon="-0.38432">
        <ele>22.25</ele>
        <time>2013-06-09T08:44:40Z</time>
      </trkpt>
      <trkpt lat="45.60867" lon="-0.38434">
        <ele>22.25</ele>
        <time>2013-06-09T08:44:42Z</time>
      </trkpt>
      <trkpt lat="45.60869" lon="-0.38436">
        <ele>22.73</ele>
        <time>2013-06-09T08:44:56Z</time>
      </trkpt>
      <trkpt lat="45.60872" lon="-0.38446">
        <ele>22.73</ele>
        <time>2013-06-09T08:45:00Z</time>
      </trkpt>
      <trkpt lat="45.60903" lon="-0.38529">
        <ele>16.48</ele>
        <time>2013-06-09T08:45:10Z</time>
      </trkpt>
      <trkpt lat="45.60956" lon="-0.38645">
        <ele>16</ele>
        <time>2013-06-09T08:45:23Z</time>
      </trkpt>
      <trkpt lat="45.60998" lon="-0.38714">
        <ele>21.29</ele>
        <time>2013-06-09T08:45:39Z</time>
      </trkpt>
      <trkpt lat="45.61026" lon="-0.38755">
        <ele>25.13</ele>
        <time>2013-06-09T08:45:58Z</time>
      </trkpt>
      <trkpt lat="45.61053" lon="-0.38804">
        <ele>28.98</ele>
        <time>2013-06-09T08:46:19Z</time>
      </trkpt>
      <trkpt lat="45.61082" lon="-0.38859">
        <ele>30.42</ele>
        <time>2013-06-09T08:46:39Z</time>
      </trkpt>
      <trkpt lat="45.61114" lon="-0.38916">
        <ele>31.86</ele>
        <time>2013-06-09T08:46:59Z</time>
      </trkpt>
      <trkpt lat="45.61155" lon="-0.38989">
        <ele>32.34</ele>
        <time>2013-06-09T08:47:21Z</time>
      </trkpt>
      <trkpt lat="45.6118" lon="-0.3904">
        <ele>31.86</ele>
        <time>2013-06-09T08:47:32Z</time>
      </trkpt>
      <trkpt lat="45.61192" lon="-0.39064">
        <ele>31.38</ele>
        <time>2013-06-09T08:47:37Z</time>
      </trkpt>
      <trkpt lat="45.61201" lon="-0.3909">
        <ele>30.9</ele>
        <time>2013-06-09T08:47:44Z</time>
      </trkpt>
      <trkpt lat="45.6123" lon="-0.39187">
        <ele>27.53</ele>
        <time>2013-06-09T08:48:00Z</time>
      </trkpt>
      <trkpt lat="45.61282" lon="-0.39356">
        <ele>21.77</ele>
        <time>2013-06-09T08:48:16Z</time>
      </trkpt>
      <trkpt lat="45.61326" lon="-0.39488">
        <ele>22.25</ele>
        <time>2013-06-09T08:48:32Z</time>
      </trkpt>
      <trkpt lat="45.61381" lon="-0.39621">
        <ele>23.69</ele>
        <time>2013-06-09T08:48:53Z</time>
      </trkpt>
      <trkpt lat="45.61438" lon="-0.39728">
        <ele>28.02</ele>
        <time>2013-06-09T08:49:15Z</time>
      </trkpt>
      <trkpt lat="45.61477" lon="-0.39787">
        <ele>29.46</ele>
        <time>2013-06-09T08:49:33Z</time>
      </trkpt>
      <trkpt lat="45.61479" lon="-0.39792">
        <ele>29.46</ele>
        <time>2013-06-09T08:49:48Z</time>
      </trkpt>
      <trkpt lat="45.61479" lon="-0.39792">
        <ele>29.94</ele>
        <time>2013-06-09T08:50:00Z</time>
      </trkpt>
      <trkpt lat="45.61501" lon="-0.3982">
        <ele>29.46</ele>
        <time>2013-06-09T08:50:16Z</time>
      </trkpt>
      <trkpt lat="45.61525" lon="-0.39852">
        <ele>29.94</ele>
        <time>2013-06-09T08:50:32Z</time>
      </trkpt>
      <trkpt lat="45.61559" lon="-0.39889">
        <ele>30.9</ele>
        <time>2013-06-09T08:50:49Z</time>
      </trkpt>
      <trkpt lat="45.61598" lon="-0.39935">
        <ele>30.9</ele>
        <time>2013-06-09T08:51:04Z</time>
      </trkpt>
      <trkpt lat="45.61652" lon="-0.4001">
        <ele>29.46</ele>
        <time>2013-06-09T08:51:19Z</time>
      </trkpt>
      <trkpt lat="45.61734" lon="-0.40103">
        <ele>22.73</ele>
        <time>2013-06-09T08:51:34Z</time>
      </trkpt>
      <trkpt lat="45.61741" lon="-0.40111">
        <ele>21.77</ele>
        <time>2013-06-09T08:51:35Z</time>
      </trkpt>
      <trkpt lat="45.6185" lon="-0.40259">
        <ele>15.04</ele>
        <time>2013-06-09T08:51:51Z</time>
      </trkpt>
      <trkpt lat="45.619" lon="-0.40327">
        <ele>14.08</ele>
        <time>2013-06-09T08:52:00Z</time>
      </trkpt>
      <trkpt lat="45.61942" lon="-0.40385">
        <ele>15.04</ele>
        <time>2013-06-09T08:52:14Z</time>
      </trkpt>
      <trkpt lat="45.61943" lon="-0.40386">
        <ele>14.56</ele>
        <time>2013-06-09T08:52:27Z</time>
      </trkpt>
      <trkpt lat="45.61947" lon="-0.40387">
        <ele>14.56</ele>
        <time>2013-06-09T08:52:33Z</time>
      </trkpt>
      <trkpt lat="45.61947" lon="-0.4039">
        <ele>15.04</ele>
        <time>2013-06-09T08:52:49Z</time>
      </trkpt>
      <trkpt lat="45.61947" lon="-0.40388">
        <ele>15.04</ele>
        <time>2013-06-09T08:53:17Z</time>
      </trkpt>
      <trkpt lat="45.61957" lon="-0.4041">
        <ele>15.04</ele>
        <time>2013-06-09T08:53:29Z</time>
      </trkpt>
      <trkpt lat="45.61967" lon="-0.40431">
        <ele>14.08</ele>
        <time>2013-06-09T08:53:41Z</time>
      </trkpt>
      <trkpt lat="45.61983" lon="-0.40454">
        <ele>13.6</ele>
        <time>2013-06-09T08:53:47Z</time>
      </trkpt>
      <trkpt lat="45.6205" lon="-0.40531">
        <ele>15.52</ele>
        <time>2013-06-09T08:54:05Z</time>
      </trkpt>
      <trkpt lat="45.62117" lon="-0.40581">
        <ele>18.4</ele>
        <time>2013-06-09T08:54:24Z</time>
      </trkpt>
      <trkpt lat="45.62175" lon="-0.4063">
        <ele>21.29</ele>
        <time>2013-06-09T08:54:45Z</time>
      </trkpt>
      <trkpt lat="45.62177" lon="-0.40634">
        <ele>21.29</ele>
        <time>2013-06-09T08:54:59Z</time>
      </trkpt>
      <trkpt lat="45.62191" lon="-0.40649">
        <ele>21.77</ele>
        <time>2013-06-09T08:55:14Z</time>
      </trkpt>
      <trkpt lat="45.62209" lon="-0.40672">
        <ele>23.69</ele>
        <time>2013-06-09T08:55:28Z</time>
      </trkpt>
      <trkpt lat="45.62218" lon="-0.40683">
        <ele>25.61</ele>
        <time>2013-06-09T08:55:34Z</time>
      </trkpt>
      <trkpt lat="45.62226" lon="-0.40693">
        <ele>26.57</ele>
        <time>2013-06-09T08:55:40Z</time>
      </trkpt>
      <trkpt lat="45.62249" lon="-0.40723">
        <ele>29.94</ele>
        <time>2013-06-09T08:56:00Z</time>
      </trkpt>
      <trkpt lat="45.62254" lon="-0.40731">
        <ele>31.38</ele>
        <time>2013-06-09T08:56:05Z</time>
      </trkpt>
      <trkpt lat="45.62275" lon="-0.40777">
        <ele>33.3</ele>
        <time>2013-06-09T08:56:28Z</time>
      </trkpt>
      <trkpt lat="45.62279" lon="-0.40817">
        <ele>33.3</ele>
        <time>2013-06-09T08:56:43Z</time>
      </trkpt>
      <trkpt lat="45.62279" lon="-0.40871">
        <ele>33.78</ele>
        <time>2013-06-09T08:57:00Z</time>
      </trkpt>
      <trkpt lat="45.62301" lon="-0.40925">
        <ele>35.71</ele>
        <time>2013-06-09T08:57:17Z</time>
      </trkpt>
      <trkpt lat="45.62334" lon="-0.40963">
        <ele>35.71</ele>
        <time>2013-06-09T08:57:31Z</time>
      </trkpt>
      <trkpt lat="45.62331" lon="-0.40976">
        <ele>35.23</ele>
        <time>2013-06-09T08:57:44Z</time>
      </trkpt>
      <trkpt lat="45.62331" lon="-0.40975">
        <ele>35.71</ele>
        <time>2013-06-09T08:57:53Z</time>
      </trkpt>
      <trkpt lat="45.62346" lon="-0.40947">
        <ele>35.23</ele>
        <time>2013-06-09T08:58:09Z</time>
      </trkpt>
      <trkpt lat="45.62353" lon="-0.40936">
        <ele>34.74</ele>
        <time>2013-06-09T08:58:14Z</time>
      </trkpt>
      <trkpt lat="45.62355" lon="-0.40936">
        <ele>34.74</ele>
        <time>2013-06-09T08:58:32Z</time>
      </trkpt>
      <trkpt lat="45.62355" lon="-0.40935">
        <ele>34.74</ele>
        <time>2013-06-09T08:59:05Z</time>
      </trkpt>
      <trkpt lat="45.62355" lon="-0.40935">
        <ele>34.74</ele>
        <time>2013-06-09T08:59:27Z</time>
      </trkpt>
      <trkpt lat="45.62357" lon="-0.40936">
        <ele>35.23</ele>
        <time>2013-06-09T09:00:11Z</time>
      </trkpt>
      <trkpt lat="45.62357" lon="-0.40936">
        <ele>35.23</ele>
        <time>2013-06-09T09:00:42Z</time>
      </trkpt>
      <trkpt lat="45.62357" lon="-0.40936">
        <ele>35.23</ele>
        <time>2013-06-09T09:00:44Z</time>
      </trkpt>
      <trkpt lat="45.6234" lon="-0.40959">
        <ele>35.23</ele>
        <time>2013-06-09T09:00:56Z</time>
      </trkpt>
      <trkpt lat="45.62337" lon="-0.40966">
        <ele>35.23</ele>
        <time>2013-06-09T09:00:59Z</time>
      </trkpt>
      <trkpt lat="45.62333" lon="-0.4097">
        <ele>35.23</ele>
        <time>2013-06-09T09:01:15Z</time>
      </trkpt>
      <trkpt lat="45.62333" lon="-0.40971">
        <ele>34.26</ele>
        <time>2013-06-09T09:01:42Z</time>
      </trkpt>
      <trkpt lat="45.62333" lon="-0.40972">
        <ele>34.26</ele>
        <time>2013-06-09T09:01:53Z</time>
      </trkpt>
      <trkpt lat="45.62323" lon="-0.40949">
        <ele>34.26</ele>
        <time>2013-06-09T09:02:04Z</time>
      </trkpt>
      <trkpt lat="45.62297" lon="-0.40919">
        <ele>33.78</ele>
        <time>2013-06-09T09:02:16Z</time>
      </trkpt>
      <trkpt lat="45.62284" lon="-0.40892">
        <ele>33.3</ele>
        <time>2013-06-09T09:02:21Z</time>
      </trkpt>
      <trkpt lat="45.62279" lon="-0.40869">
        <ele>32.82</ele>
        <time>2013-06-09T09:02:24Z</time>
      </trkpt>
      <trkpt lat="45.6228" lon="-0.4083">
        <ele>32.34</ele>
        <time>2013-06-09T09:02:29Z</time>
      </trkpt>
      <trkpt lat="45.6227" lon="-0.4076">
        <ele>30.42</ele>
        <time>2013-06-09T09:02:38Z</time>
      </trkpt>
      <trkpt lat="45.62263" lon="-0.40744">
        <ele>29.46</ele>
        <time>2013-06-09T09:02:40Z</time>
      </trkpt>
      <trkpt lat="45.62188" lon="-0.40646">
        <ele>20.32</ele>
        <time>2013-06-09T09:02:54Z</time>
      </trkpt>
      <trkpt lat="45.6218" lon="-0.40636">
        <ele>19.36</ele>
        <time>2013-06-09T09:02:58Z</time>
      </trkpt>
      <trkpt lat="45.62186" lon="-0.40615">
        <ele>19.36</ele>
        <time>2013-06-09T09:03:03Z</time>
      </trkpt>
      <trkpt lat="45.62241" lon="-0.4052">
        <ele>19.84</ele>
        <time>2013-06-09T09:03:21Z</time>
      </trkpt>
      <trkpt lat="45.62307" lon="-0.40404">
        <ele>19.36</ele>
        <time>2013-06-09T09:03:41Z</time>
      </trkpt>
      <trkpt lat="45.6238" lon="-0.403">
        <ele>20.32</ele>
        <time>2013-06-09T09:04:00Z</time>
      </trkpt>
      <trkpt lat="45.62458" lon="-0.40243">
        <ele>21.29</ele>
        <time>2013-06-09T09:04:18Z</time>
      </trkpt>
      <trkpt lat="45.62553" lon="-0.40177">
        <ele>21.29</ele>
        <time>2013-06-09T09:04:38Z</time>
      </trkpt>
      <trkpt lat="45.62627" lon="-0.4013">
        <ele>20.32</ele>
        <time>2013-06-09T09:04:53Z</time>
      </trkpt>
      <trkpt lat="45.6275" lon="-0.40123">
        <ele>18.88</ele>
        <time>2013-06-09T09:05:15Z</time>
      </trkpt>
      <trkpt lat="45.62869" lon="-0.40123">
        <ele>16</ele>
        <time>2013-06-09T09:05:35Z</time>
      </trkpt>
      <trkpt lat="45.6299" lon="-0.40117">
        <ele>12.15</ele>
        <time>2013-06-09T09:05:53Z</time>
      </trkpt>
      <trkpt lat="45.63121" lon="-0.40129">
        <ele>11.67</ele>
        <time>2013-06-09T09:06:13Z</time>
      </trkpt>
      <trkpt lat="45.63222" lon="-0.40182">
        <ele>14.08</ele>
        <time>2013-06-09T09:06:32Z</time>
      </trkpt>
      <trkpt lat="45.63236" lon="-0.40189">
        <ele>14.56</ele>
        <time>2013-06-09T09:06:35Z</time>
      </trkpt>
      <trkpt lat="45.63287" lon="-0.40211">
        <ele>15.52</ele>
        <time>2013-06-09T09:06:46Z</time>
      </trkpt>
      <trkpt lat="45.63365" lon="-0.40234">
        <ele>18.4</ele>
        <time>2013-06-09T09:07:06Z</time>
      </trkpt>
      <trkpt lat="45.63436" lon="-0.40227">
        <ele>18.88</ele>
        <time>2013-06-09T09:07:24Z</time>
      </trkpt>
      <trkpt lat="45.63447" lon="-0.40221">
        <ele>19.36</ele>
        <time>2013-06-09T09:07:27Z</time>
      </trkpt>
      <trkpt lat="45.63462" lon="-0.40203">
        <ele>18.88</ele>
        <time>2013-06-09T09:07:32Z</time>
      </trkpt>
      <trkpt lat="45.63498" lon="-0.40095">
        <ele>18.88</ele>
        <time>2013-06-09T09:07:51Z</time>
      </trkpt>
      <trkpt lat="45.63501" lon="-0.40084">
        <ele>18.88</ele>
        <time>2013-06-09T09:07:53Z</time>
      </trkpt>
      <trkpt lat="45.6351" lon="-0.40057">
        <ele>19.36</ele>
        <time>2013-06-09T09:07:58Z</time>
      </trkpt>
      <trkpt lat="45.63538" lon="-0.39972">
        <ele>20.32</ele>
        <time>2013-06-09T09:08:14Z</time>
      </trkpt>
      <trkpt lat="45.63549" lon="-0.3994">
        <ele>20.81</ele>
        <time>2013-06-09T09:08:20Z</time>
      </trkpt>
      <trkpt lat="45.63555" lon="-0.39924">
        <ele>21.29</ele>
        <time>2013-06-09T09:08:23Z</time>
      </trkpt>
      <trkpt lat="45.63599" lon="-0.39814">
        <ele>18.88</ele>
        <time>2013-06-09T09:08:41Z</time>
      </trkpt>
      <trkpt lat="45.63663" lon="-0.39668">
        <ele>16</ele>
        <time>2013-06-09T09:09:02Z</time>
      </trkpt>
      <trkpt lat="45.63725" lon="-0.39527">
        <ele>13.6</ele>
        <time>2013-06-09T09:09:21Z</time>
      </trkpt>
      <trkpt lat="45.63775" lon="-0.39413">
        <ele>14.56</ele>
        <time>2013-06-09T09:09:39Z</time>
      </trkpt>
      <trkpt lat="45.63834" lon="-0.39279">
        <ele>13.6</ele>
        <time>2013-06-09T09:10:02Z</time>
      </trkpt>
      <trkpt lat="45.63879" lon="-0.39161">
        <ele>13.12</ele>
        <time>2013-06-09T09:10:21Z</time>
      </trkpt>
      <trkpt lat="45.63922" lon="-0.3901">
        <ele>12.63</ele>
        <time>2013-06-09T09:10:42Z</time>
      </trkpt>
      <trkpt lat="45.63973" lon="-0.38875">
        <ele>12.63</ele>
        <time>2013-06-09T09:11:04Z</time>
      </trkpt>
      <trkpt lat="45.64031" lon="-0.38771">
        <ele>12.63</ele>
        <time>2013-06-09T09:11:24Z</time>
      </trkpt>
      <trkpt lat="45.64037" lon="-0.38761">
        <ele>12.63</ele>
        <time>2013-06-09T09:11:26Z</time>
      </trkpt>
      <trkpt lat="45.64054" lon="-0.38739">
        <ele>13.12</ele>
        <time>2013-06-09T09:11:31Z</time>
      </trkpt>
      <trkpt lat="45.6409" lon="-0.38698">
        <ele>13.6</ele>
        <time>2013-06-09T09:11:41Z</time>
      </trkpt>
      <trkpt lat="45.64098" lon="-0.38691">
        <ele>13.6</ele>
        <time>2013-06-09T09:11:43Z</time>
      </trkpt>
      <trkpt lat="45.64119" lon="-0.38672">
        <ele>13.6</ele>
        <time>2013-06-09T09:11:49Z</time>
      </trkpt>
      <trkpt lat="45.64127" lon="-0.38667">
        <ele>13.6</ele>
        <time>2013-06-09T09:11:51Z</time>
      </trkpt>
      <trkpt lat="45.6413" lon="-0.38648">
        <ele>13.12</ele>
        <time>2013-06-09T09:11:55Z</time>
      </trkpt>
      <trkpt lat="45.64106" lon="-0.38584">
        <ele>12.15</ele>
        <time>2013-06-09T09:12:08Z</time>
      </trkpt>
      <trkpt lat="45.64088" lon="-0.38538">
        <ele>12.63</ele>
        <time>2013-06-09T09:12:19Z</time>
      </trkpt>
      <trkpt lat="45.64063" lon="-0.38475">
        <ele>10.71</ele>
        <time>2013-06-09T09:12:31Z</time>
      </trkpt>
      <trkpt lat="45.64035" lon="-0.38429">
        <ele>8.31</ele>
        <time>2013-06-09T09:12:42Z</time>
      </trkpt>
      <trkpt lat="45.6403" lon="-0.38439">
        <ele>8.31</ele>
        <time>2013-06-09T09:12:51Z</time>
      </trkpt>
      <trkpt lat="45.64026" lon="-0.38442">
        <ele>12.15</ele>
        <time>2013-06-09T09:13:28Z</time>
      </trkpt>
      <trkpt lat="45.64025" lon="-0.38443">
        <ele>14.08</ele>
        <time>2013-06-09T09:14:09Z</time>
      </trkpt>
      <trkpt lat="45.64026" lon="-0.38444">
        <ele>14.56</ele>
        <time>2013-06-09T09:14:54Z</time>
      </trkpt>
      <trkpt lat="45.64026" lon="-0.38445">
        <ele>14.08</ele>
        <time>2013-06-09T09:15:26Z</time>
      </trkpt>
      <trkpt lat="45.64027" lon="-0.38444">
        <ele>13.12</ele>
        <time>2013-06-09T09:15:58Z</time>
      </trkpt>
      <trkpt lat="45.64029" lon="-0.38443">
        <ele>12.15</ele>
        <time>2013-06-09T09:16:33Z</time>
      </trkpt>
      <trkpt lat="45.64029" lon="-0.38443">
        <ele>12.15</ele>
        <time>2013-06-09T09:17:05Z</time>
      </trkpt>
      <trkpt lat="45.6403" lon="-0.38442">
        <ele>12.15</ele>
        <time>2013-06-09T09:17:42Z</time>
      </trkpt>
      <trkpt lat="45.64029" lon="-0.38444">
        <ele>13.6</ele>
        <time>2013-06-09T09:18:19Z</time>
      </trkpt>
      <trkpt lat="45.64028" lon="-0.38445">
        <ele>14.08</ele>
        <time>2013-06-09T09:18:50Z</time>
      </trkpt>
      <trkpt lat="45.64027" lon="-0.38444">
        <ele>14.08</ele>
        <time>2013-06-09T09:19:21Z</time>
      </trkpt>
      <trkpt lat="45.64028" lon="-0.38442">
        <ele>14.08</ele>
        <time>2013-06-09T09:19:37Z</time>
      </trkpt>
      <trkpt lat="45.64031" lon="-0.38439">
        <ele>12.63</ele>
        <time>2013-06-09T09:19:59Z</time>
      </trkpt>
      <trkpt lat="45.64042" lon="-0.38429">
        <ele>12.63</ele>
        <time>2013-06-09T09:20:08Z</time>
      </trkpt>
      <trkpt lat="45.64065" lon="-0.38477">
        <ele>12.15</ele>
        <time>2013-06-09T09:20:23Z</time>
      </trkpt>
      <trkpt lat="45.64087" lon="-0.38537">
        <ele>12.15</ele>
        <time>2013-06-09T09:20:39Z</time>
      </trkpt>
      <trkpt lat="45.64118" lon="-0.38618">
        <ele>13.12</ele>
        <time>2013-06-09T09:20:57Z</time>
      </trkpt>
      <trkpt lat="45.64131" lon="-0.38659">
        <ele>13.6</ele>
        <time>2013-06-09T09:21:06Z</time>
      </trkpt>
      <trkpt lat="45.64131" lon="-0.38681">
        <ele>12.63</ele>
        <time>2013-06-09T09:21:14Z</time>
      </trkpt>
      <trkpt lat="45.6414" lon="-0.38693">
        <ele>11.67</ele>
        <time>2013-06-09T09:21:17Z</time>
      </trkpt>
      <trkpt lat="45.64148" lon="-0.38708">
        <ele>11.19</ele>
        <time>2013-06-09T09:21:20Z</time>
      </trkpt>
      <trkpt lat="45.64182" lon="-0.38803">
        <ele>10.71</ele>
        <time>2013-06-09T09:21:41Z</time>
      </trkpt>
      <trkpt lat="45.64193" lon="-0.38829">
        <ele>11.19</ele>
        <time>2013-06-09T09:21:47Z</time>
      </trkpt>
      <trkpt lat="45.64189" lon="-0.38843">
        <ele>11.67</ele>
        <time>2013-06-09T09:21:51Z</time>
      </trkpt>
      <trkpt lat="45.64123" lon="-0.38878">
        <ele>13.12</ele>
        <time>2013-06-09T09:22:13Z</time>
      </trkpt>
      <trkpt lat="45.6412" lon="-0.3888">
        <ele>13.12</ele>
        <time>2013-06-09T09:22:14Z</time>
      </trkpt>
      <trkpt lat="45.64118" lon="-0.389">
        <ele>13.6</ele>
        <time>2013-06-09T09:22:20Z</time>
      </trkpt>
      <trkpt lat="45.64133" lon="-0.3898">
        <ele>14.08</ele>
        <time>2013-06-09T09:22:39Z</time>
      </trkpt>
      <trkpt lat="45.64134" lon="-0.38984">
        <ele>14.08</ele>
        <time>2013-06-09T09:22:40Z</time>
      </trkpt>
      <trkpt lat="45.64126" lon="-0.38995">
        <ele>14.08</ele>
        <time>2013-06-09T09:22:44Z</time>
      </trkpt>
      <trkpt lat="45.64065" lon="-0.39019">
        <ele>14.56</ele>
        <time>2013-06-09T09:23:01Z</time>
      </trkpt>
      <trkpt lat="45.64062" lon="-0.39087">
        <ele>15.52</ele>
        <time>2013-06-09T09:23:15Z</time>
      </trkpt>
      <trkpt lat="45.64063" lon="-0.39159">
        <ele>16</ele>
        <time>2013-06-09T09:23:30Z</time>
      </trkpt>
      <trkpt lat="45.64049" lon="-0.39247">
        <ele>16.48</ele>
        <time>2013-06-09T09:23:49Z</time>
      </trkpt>
      <trkpt lat="45.64045" lon="-0.39264">
        <ele>16.48</ele>
        <time>2013-06-09T09:23:53Z</time>
      </trkpt>
      <trkpt lat="45.64027" lon="-0.39288">
        <ele>17.44</ele>
        <time>2013-06-09T09:24:02Z</time>
      </trkpt>
      <trkpt lat="45.64021" lon="-0.39392">
        <ele>18.4</ele>
        <time>2013-06-09T09:24:21Z</time>
      </trkpt>
      <trkpt lat="45.64012" lon="-0.39504">
        <ele>18.88</ele>
        <time>2013-06-09T09:24:40Z</time>
      </trkpt>
      <trkpt lat="45.64006" lon="-0.3956">
        <ele>18.88</ele>
        <time>2013-06-09T09:24:50Z</time>
      </trkpt>
      <trkpt lat="45.64013" lon="-0.39571">
        <ele>17.92</ele>
        <time>2013-06-09T09:24:54Z</time>
      </trkpt>
      <trkpt lat="45.64084" lon="-0.39559">
        <ele>19.36</ele>
        <time>2013-06-09T09:25:12Z</time>
      </trkpt>
      <trkpt lat="45.64153" lon="-0.39553">
        <ele>20.32</ele>
        <time>2013-06-09T09:25:31Z</time>
      </trkpt>
      <trkpt lat="45.64209" lon="-0.3955">
        <ele>20.32</ele>
        <time>2013-06-09T09:25:47Z</time>
      </trkpt>
      <trkpt lat="45.64218" lon="-0.39568">
        <ele>19.84</ele>
        <time>2013-06-09T09:25:52Z</time>
      </trkpt>
      <trkpt lat="45.64234" lon="-0.39646">
        <ele>18.4</ele>
        <time>2013-06-09T09:26:08Z</time>
      </trkpt>
      <trkpt lat="45.64249" lon="-0.39694">
        <ele>18.4</ele>
        <time>2013-06-09T09:26:18Z</time>
      </trkpt>
      <trkpt lat="45.64285" lon="-0.39674">
        <ele>19.36</ele>
        <time>2013-06-09T09:26:29Z</time>
      </trkpt>
      <trkpt lat="45.64342" lon="-0.39631">
        <ele>19.84</ele>
        <time>2013-06-09T09:26:44Z</time>
      </trkpt>
      <trkpt lat="45.64356" lon="-0.39646">
        <ele>19.84</ele>
        <time>2013-06-09T09:26:50Z</time>
      </trkpt>
      <trkpt lat="45.64359" lon="-0.39716">
        <ele>18.4</ele>
        <time>2013-06-09T09:27:04Z</time>
      </trkpt>
      <trkpt lat="45.64375" lon="-0.39791">
        <ele>16.96</ele>
        <time>2013-06-09T09:27:21Z</time>
      </trkpt>
      <trkpt lat="45.64387" lon="-0.39856">
        <ele>16.48</ele>
        <time>2013-06-09T09:27:35Z</time>
      </trkpt>
      <trkpt lat="45.64389" lon="-0.39865">
        <ele>16.48</ele>
        <time>2013-06-09T09:27:37Z</time>
      </trkpt>
      <trkpt lat="45.64406" lon="-0.39865">
        <ele>16.48</ele>
        <time>2013-06-09T09:27:42Z</time>
      </trkpt>
      <trkpt lat="45.64476" lon="-0.39836">
        <ele>17.44</ele>
        <time>2013-06-09T09:27:59Z</time>
      </trkpt>
      <trkpt lat="45.6452" lon="-0.39814">
        <ele>19.36</ele>
        <time>2013-06-09T09:28:10Z</time>
      </trkpt>
      <trkpt lat="45.64622" lon="-0.39786">
        <ele>20.81</ele>
        <time>2013-06-09T09:28:32Z</time>
      </trkpt>
      <trkpt lat="45.64703" lon="-0.39785">
        <ele>19.36</ele>
        <time>2013-06-09T09:28:49Z</time>
      </trkpt>
      <trkpt lat="45.64718" lon="-0.39778">
        <ele>18.88</ele>
        <time>2013-06-09T09:28:53Z</time>
      </trkpt>
      <trkpt lat="45.64739" lon="-0.39809">
        <ele>17.92</ele>
        <time>2013-06-09T09:29:00Z</time>
      </trkpt>
      <trkpt lat="45.64789" lon="-0.39953">
        <ele>12.63</ele>
        <time>2013-06-09T09:29:17Z</time>
      </trkpt>
      <trkpt lat="45.64847" lon="-0.40124">
        <ele>9.75</ele>
        <time>2013-06-09T09:29:37Z</time>
      </trkpt>
      <trkpt lat="45.64896" lon="-0.40266">
        <ele>8.79</ele>
        <time>2013-06-09T09:29:55Z</time>
      </trkpt>
      <trkpt lat="45.64908" lon="-0.40302">
        <ele>8.31</ele>
        <time>2013-06-09T09:30:00Z</time>
      </trkpt>
      <trkpt lat="45.6496" lon="-0.40455">
        <ele>8.31</ele>
        <time>2013-06-09T09:30:22Z</time>
      </trkpt>
      <trkpt lat="45.65005" lon="-0.40588">
        <ele>9.27</ele>
        <time>2013-06-09T09:30:42Z</time>
      </trkpt>
      <trkpt lat="45.65025" lon="-0.40646">
        <ele>9.75</ele>
        <time>2013-06-09T09:30:52Z</time>
      </trkpt>
      <trkpt lat="45.65039" lon="-0.40648">
        <ele>9.75</ele>
        <time>2013-06-09T09:30:56Z</time>
      </trkpt>
      <trkpt lat="45.65144" lon="-0.40571">
        <ele>11.19</ele>
        <time>2013-06-09T09:31:20Z</time>
      </trkpt>
      <trkpt lat="45.65234" lon="-0.40513">
        <ele>12.63</ele>
        <time>2013-06-09T09:31:41Z</time>
      </trkpt>
      <trkpt lat="45.65341" lon="-0.40448">
        <ele>12.63</ele>
        <time>2013-06-09T09:32:06Z</time>
      </trkpt>
      <trkpt lat="45.65402" lon="-0.40413">
        <ele>12.15</ele>
        <time>2013-06-09T09:32:20Z</time>
      </trkpt>
      <trkpt lat="45.65412" lon="-0.40425">
        <ele>12.63</ele>
        <time>2013-06-09T09:32:24Z</time>
      </trkpt>
      <trkpt lat="45.65439" lon="-0.40533">
        <ele>14.08</ele>
        <time>2013-06-09T09:32:43Z</time>
      </trkpt>
      <trkpt lat="45.6547" lon="-0.40636">
        <ele>15.52</ele>
        <time>2013-06-09T09:33:03Z</time>
      </trkpt>
      <trkpt lat="45.65487" lon="-0.40681">
        <ele>16</ele>
        <time>2013-06-09T09:33:12Z</time>
      </trkpt>
      <trkpt lat="45.65551" lon="-0.40771">
        <ele>16.48</ele>
        <time>2013-06-09T09:33:33Z</time>
      </trkpt>
      <trkpt lat="45.65611" lon="-0.40869">
        <ele>19.36</ele>
        <time>2013-06-09T09:33:56Z</time>
      </trkpt>
      <trkpt lat="45.65657" lon="-0.40949">
        <ele>20.81</ele>
        <time>2013-06-09T09:34:17Z</time>
      </trkpt>
      <trkpt lat="45.65701" lon="-0.41018">
        <ele>21.29</ele>
        <time>2013-06-09T09:34:36Z</time>
      </trkpt>
      <trkpt lat="45.65764" lon="-0.41053">
        <ele>22.25</ele>
        <time>2013-06-09T09:34:55Z</time>
      </trkpt>
      <trkpt lat="45.6578" lon="-0.41056">
        <ele>22.73</ele>
        <time>2013-06-09T09:34:59Z</time>
      </trkpt>
      <trkpt lat="45.65802" lon="-0.41059">
        <ele>21.77</ele>
        <time>2013-06-09T09:35:04Z</time>
      </trkpt>
      <trkpt lat="45.6581" lon="-0.41063">
        <ele>21.29</ele>
        <time>2013-06-09T09:35:06Z</time>
      </trkpt>
      <trkpt lat="45.65849" lon="-0.41099">
        <ele>19.84</ele>
        <time>2013-06-09T09:35:15Z</time>
      </trkpt>
      <trkpt lat="45.65863" lon="-0.41127">
        <ele>18.4</ele>
        <time>2013-06-09T09:35:19Z</time>
      </trkpt>
      <trkpt lat="45.65925" lon="-0.41308">
        <ele>12.15</ele>
        <time>2013-06-09T09:35:41Z</time>
      </trkpt>
      <trkpt lat="45.65957" lon="-0.41412">
        <ele>10.23</ele>
        <time>2013-06-09T09:35:56Z</time>
      </trkpt>
      <trkpt lat="45.65954" lon="-0.41461">
        <ele>9.75</ele>
        <time>2013-06-09T09:36:05Z</time>
      </trkpt>
      <trkpt lat="45.6597" lon="-0.41533">
        <ele>8.79</ele>
        <time>2013-06-09T09:36:17Z</time>
      </trkpt>
      <trkpt lat="45.65983" lon="-0.41572">
        <ele>7.83</ele>
        <time>2013-06-09T09:36:24Z</time>
      </trkpt>
      <trkpt lat="45.65998" lon="-0.41572">
        <ele>7.83</ele>
        <time>2013-06-09T09:36:31Z</time>
      </trkpt>
      <trkpt lat="45.66003" lon="-0.41579">
        <ele>7.83</ele>
        <time>2013-06-09T09:36:47Z</time>
      </trkpt>
      <trkpt lat="45.66018" lon="-0.41634">
        <ele>7.83</ele>
        <time>2013-06-09T09:36:59Z</time>
      </trkpt>
      <trkpt lat="45.66044" lon="-0.41749">
        <ele>5.91</ele>
        <time>2013-06-09T09:37:15Z</time>
      </trkpt>
      <trkpt lat="45.66055" lon="-0.41904">
        <ele>5.42</ele>
        <time>2013-06-09T09:37:36Z</time>
      </trkpt>
      <trkpt lat="45.66076" lon="-0.42055">
        <ele>6.39</ele>
        <time>2013-06-09T09:37:59Z</time>
      </trkpt>
      <trkpt lat="45.6612" lon="-0.42194">
        <ele>6.39</ele>
        <time>2013-06-09T09:38:21Z</time>
      </trkpt>
      <trkpt lat="45.66155" lon="-0.42314">
        <ele>7.35</ele>
        <time>2013-06-09T09:38:40Z</time>
      </trkpt>
      <trkpt lat="45.6616" lon="-0.42335">
        <ele>7.35</ele>
        <time>2013-06-09T09:38:44Z</time>
      </trkpt>
      <trkpt lat="45.66182" lon="-0.42414">
        <ele>8.79</ele>
        <time>2013-06-09T09:39:04Z</time>
      </trkpt>
      <trkpt lat="45.6621" lon="-0.42502">
        <ele>9.75</ele>
        <time>2013-06-09T09:39:24Z</time>
      </trkpt>
      <trkpt lat="45.66238" lon="-0.42602">
        <ele>8.79</ele>
        <time>2013-06-09T09:39:44Z</time>
      </trkpt>
      <trkpt lat="45.66264" lon="-0.42716">
        <ele>8.79</ele>
        <time>2013-06-09T09:40:06Z</time>
      </trkpt>
      <trkpt lat="45.66274" lon="-0.42759">
        <ele>9.27</ele>
        <time>2013-06-09T09:40:15Z</time>
      </trkpt>
      <trkpt lat="45.66302" lon="-0.42758">
        <ele>10.71</ele>
        <time>2013-06-09T09:40:27Z</time>
      </trkpt>
      <trkpt lat="45.66312" lon="-0.42756">
        <ele>11.19</ele>
        <time>2013-06-09T09:40:34Z</time>
      </trkpt>
      <trkpt lat="45.66316" lon="-0.42755">
        <ele>11.19</ele>
        <time>2013-06-09T09:40:37Z</time>
      </trkpt>
      <trkpt lat="45.66321" lon="-0.42754">
        <ele>11.19</ele>
        <time>2013-06-09T09:40:41Z</time>
      </trkpt>
      <trkpt lat="45.66358" lon="-0.42748">
        <ele>11.67</ele>
        <time>2013-06-09T09:41:00Z</time>
      </trkpt>
      <trkpt lat="45.66404" lon="-0.4274">
        <ele>13.12</ele>
        <time>2013-06-09T09:41:19Z</time>
      </trkpt>
      <trkpt lat="45.66447" lon="-0.42727">
        <ele>13.6</ele>
        <time>2013-06-09T09:41:37Z</time>
      </trkpt>
      <trkpt lat="45.66494" lon="-0.42699">
        <ele>12.63</ele>
        <time>2013-06-09T09:41:57Z</time>
      </trkpt>
      <trkpt lat="45.66548" lon="-0.42658">
        <ele>13.12</ele>
        <time>2013-06-09T09:42:18Z</time>
      </trkpt>
      <trkpt lat="45.66623" lon="-0.42634">
        <ele>13.6</ele>
        <time>2013-06-09T09:42:39Z</time>
      </trkpt>
      <trkpt lat="45.66719" lon="-0.42625">
        <ele>12.15</ele>
        <time>2013-06-09T09:43:02Z</time>
      </trkpt>
      <trkpt lat="45.66816" lon="-0.42613">
        <ele>10.71</ele>
        <time>2013-06-09T09:43:24Z</time>
      </trkpt>
      <trkpt lat="45.66877" lon="-0.42591">
        <ele>9.27</ele>
        <time>2013-06-09T09:43:38Z</time>
      </trkpt>
      <trkpt lat="45.66888" lon="-0.4258">
        <ele>9.27</ele>
        <time>2013-06-09T09:43:41Z</time>
      </trkpt>
      <trkpt lat="45.66901" lon="-0.42556">
        <ele>9.27</ele>
        <time>2013-06-09T09:43:46Z</time>
      </trkpt>
      <trkpt lat="45.66942" lon="-0.42424">
        <ele>9.75</ele>
        <time>2013-06-09T09:44:09Z</time>
      </trkpt>
      <trkpt lat="45.66961" lon="-0.42406">
        <ele>10.23</ele>
        <time>2013-06-09T09:44:15Z</time>
      </trkpt>
      <trkpt lat="45.67034" lon="-0.42401">
        <ele>14.08</ele>
        <time>2013-06-09T09:44:34Z</time>
      </trkpt>
      <trkpt lat="45.67095" lon="-0.42355">
        <ele>15.52</ele>
        <time>2013-06-09T09:44:54Z</time>
      </trkpt>
      <trkpt lat="45.67136" lon="-0.42314">
        <ele>14.56</ele>
        <time>2013-06-09T09:45:09Z</time>
      </trkpt>
      <trkpt lat="45.67166" lon="-0.42285">
        <ele>13.6</ele>
        <time>2013-06-09T09:45:23Z</time>
      </trkpt>
      <trkpt lat="45.67182" lon="-0.42274">
        <ele>13.6</ele>
        <time>2013-06-09T09:45:30Z</time>
      </trkpt>
      <trkpt lat="45.67187" lon="-0.4227">
        <ele>17.44</ele>
        <time>2013-06-09T09:45:46Z</time>
      </trkpt>
      <trkpt lat="45.67186" lon="-0.42268">
        <ele>16.96</ele>
        <time>2013-06-09T09:46:00Z</time>
      </trkpt>
      <trkpt lat="45.67187" lon="-0.42266">
        <ele>16.48</ele>
        <time>2013-06-09T09:46:21Z</time>
      </trkpt>
    </trkseg>
  </trk>
</gpx>